<?xml version="1.0" encoding="UTF-8" standalone="no" ?>
<gpx xmlns="http://www.topografix.com/GPX/1/1" xmlns:xsi="http://www.w3.org/2001/XMLSchema-instance" xsi:schemaLocation="http://www.topografix.com/GPX/1/1 http://www.topografix.com/GPX/1/1/gpx.xsd" version="1.1" creator="VisuGPX - https://www.visugpx.com">
  <metadata>
    <name>Uchaud (capitelles)</name>
    <desc><![CDATA[File with points/tracks from Locus Map Classic/3.69.1]]></desc>
  </metadata>
  <trk>
    <name><![CDATA[2023-08-06 09:03]]></name>
    <extensions>
      <line xmlns="http://www.topografix.com/GPX/gpx_style/0/2">
        <color>0000FF</color>
        <opacity>0.59</opacity>
        <width>6.0</width>
      </line>
    </extensions>
    <trkseg>
      <trkpt lat="43.77074" lon="4.27445">
        <ele>34.94</ele>
        <time>2023-08-06T07:03:14.005Z</time>
      </trkpt>
      <trkpt lat="43.77085" lon="4.27428">
        <ele>37.19</ele>
        <time>2023-08-06T07:03:24.145Z</time>
      </trkpt>
      <trkpt lat="43.77093" lon="4.27418">
        <ele>35.32</ele>
        <time>2023-08-06T07:03:34.337Z</time>
      </trkpt>
      <trkpt lat="43.77103" lon="4.27404">
        <ele>35.61</ele>
        <time>2023-08-06T07:03:44.476Z</time>
      </trkpt>
      <trkpt lat="43.77114" lon="4.2739">
        <ele>34.83</ele>
        <time>2023-08-06T07:03:55.143Z</time>
      </trkpt>
      <trkpt lat="43.77123" lon="4.27381">
        <ele>36.73</ele>
        <time>2023-08-06T07:04:05.288Z</time>
      </trkpt>
      <trkpt lat="43.77131" lon="4.27368">
        <ele>36.61</ele>
        <time>2023-08-06T07:04:15.448Z</time>
      </trkpt>
      <trkpt lat="43.77142" lon="4.27355">
        <ele>35.67</ele>
        <time>2023-08-06T07:04:25.619Z</time>
      </trkpt>
      <trkpt lat="43.77151" lon="4.27341">
        <ele>36.46</ele>
        <time>2023-08-06T07:04:35.759Z</time>
      </trkpt>
      <trkpt lat="43.77161" lon="4.27327">
        <ele>37.59</ele>
        <time>2023-08-06T07:04:45.896Z</time>
      </trkpt>
      <trkpt lat="43.7717" lon="4.27315">
        <ele>38.81</ele>
        <time>2023-08-06T07:04:56.036Z</time>
      </trkpt>
      <trkpt lat="43.77181" lon="4.27305">
        <ele>39.99</ele>
        <time>2023-08-06T07:05:06.175Z</time>
      </trkpt>
      <trkpt lat="43.77191" lon="4.27296">
        <ele>39.64</ele>
        <time>2023-08-06T07:05:16.401Z</time>
      </trkpt>
      <trkpt lat="43.77205" lon="4.2729">
        <ele>41.46</ele>
        <time>2023-08-06T07:05:26.540Z</time>
      </trkpt>
      <trkpt lat="43.77217" lon="4.27283">
        <ele>40.86</ele>
        <time>2023-08-06T07:05:36.679Z</time>
      </trkpt>
      <trkpt lat="43.7723" lon="4.27275">
        <ele>40.92</ele>
        <time>2023-08-06T07:05:46.890Z</time>
      </trkpt>
      <trkpt lat="43.77242" lon="4.27269">
        <ele>41.63</ele>
        <time>2023-08-06T07:05:57.029Z</time>
      </trkpt>
      <trkpt lat="43.77253" lon="4.2726">
        <ele>41.13</ele>
        <time>2023-08-06T07:06:07.168Z</time>
      </trkpt>
      <trkpt lat="43.77263" lon="4.27247">
        <ele>42.19</ele>
        <time>2023-08-06T07:06:17.307Z</time>
      </trkpt>
      <trkpt lat="43.77274" lon="4.27234">
        <ele>42.16</ele>
        <time>2023-08-06T07:06:27.446Z</time>
      </trkpt>
      <trkpt lat="43.77284" lon="4.27222">
        <ele>42.94</ele>
        <time>2023-08-06T07:06:37.585Z</time>
      </trkpt>
      <trkpt lat="43.77293" lon="4.2721">
        <ele>43.39</ele>
        <time>2023-08-06T07:06:47.722Z</time>
      </trkpt>
      <trkpt lat="43.77302" lon="4.27197">
        <ele>45.33</ele>
        <time>2023-08-06T07:06:57.861Z</time>
      </trkpt>
      <trkpt lat="43.77309" lon="4.27182">
        <ele>44.31</ele>
        <time>2023-08-06T07:07:08.000Z</time>
      </trkpt>
      <trkpt lat="43.77317" lon="4.27166">
        <ele>41.47</ele>
        <time>2023-08-06T07:07:18.126Z</time>
      </trkpt>
      <trkpt lat="43.77325" lon="4.2715">
        <ele>46.54</ele>
        <time>2023-08-06T07:07:28.276Z</time>
      </trkpt>
      <trkpt lat="43.7733" lon="4.27134">
        <ele>45.63</ele>
        <time>2023-08-06T07:07:38.415Z</time>
      </trkpt>
      <trkpt lat="43.77337" lon="4.27118">
        <ele>46.94</ele>
        <time>2023-08-06T07:07:48.541Z</time>
      </trkpt>
      <trkpt lat="43.7734" lon="4.27101">
        <ele>46.8</ele>
        <time>2023-08-06T07:07:58.691Z</time>
      </trkpt>
      <trkpt lat="43.77341" lon="4.27083">
        <ele>47.47</ele>
        <time>2023-08-06T07:08:08.830Z</time>
      </trkpt>
      <trkpt lat="43.77346" lon="4.27067">
        <ele>47.38</ele>
        <time>2023-08-06T07:08:18.967Z</time>
      </trkpt>
      <trkpt lat="43.7735" lon="4.2705">
        <ele>48.13</ele>
        <time>2023-08-06T07:08:29.213Z</time>
      </trkpt>
      <trkpt lat="43.77358" lon="4.27036">
        <ele>47.71</ele>
        <time>2023-08-06T07:08:39.352Z</time>
      </trkpt>
      <trkpt lat="43.77368" lon="4.27025">
        <ele>49.63</ele>
        <time>2023-08-06T07:08:49.490Z</time>
      </trkpt>
      <trkpt lat="43.77379" lon="4.27014">
        <ele>48.25</ele>
        <time>2023-08-06T07:08:59.628Z</time>
      </trkpt>
      <trkpt lat="43.77393" lon="4.27005">
        <ele>49.4</ele>
        <time>2023-08-06T07:09:09.765Z</time>
      </trkpt>
      <trkpt lat="43.77402" lon="4.26991">
        <ele>49.38</ele>
        <time>2023-08-06T07:09:19.903Z</time>
      </trkpt>
      <trkpt lat="43.77407" lon="4.26973">
        <ele>51.96</ele>
        <time>2023-08-06T07:09:30.042Z</time>
      </trkpt>
      <trkpt lat="43.77414" lon="4.26961">
        <ele>51.25</ele>
        <time>2023-08-06T07:09:40.526Z</time>
      </trkpt>
      <trkpt lat="43.77424" lon="4.26944">
        <ele>52.5</ele>
        <time>2023-08-06T07:09:51.198Z</time>
      </trkpt>
      <trkpt lat="43.77423" lon="4.26929">
        <ele>53.63</ele>
        <time>2023-08-06T07:10:01.335Z</time>
      </trkpt>
      <trkpt lat="43.77423" lon="4.26914">
        <ele>54.59</ele>
        <time>2023-08-06T07:10:11.473Z</time>
      </trkpt>
      <trkpt lat="43.77422" lon="4.26901">
        <ele>56.34</ele>
        <time>2023-08-06T07:10:21.611Z</time>
      </trkpt>
      <trkpt lat="43.77423" lon="4.26889">
        <ele>56.47</ele>
        <time>2023-08-06T07:10:31.728Z</time>
      </trkpt>
      <trkpt lat="43.77422" lon="4.26871">
        <ele>59.55</ele>
        <time>2023-08-06T07:10:42.421Z</time>
      </trkpt>
      <trkpt lat="43.77424" lon="4.26858">
        <ele>59.9</ele>
        <time>2023-08-06T07:10:52.560Z</time>
      </trkpt>
      <trkpt lat="43.77422" lon="4.26842">
        <ele>60.13</ele>
        <time>2023-08-06T07:11:03.232Z</time>
      </trkpt>
      <trkpt lat="43.77421" lon="4.26829">
        <ele>65.13</ele>
        <time>2023-08-06T07:11:13.369Z</time>
      </trkpt>
      <trkpt lat="43.77421" lon="4.26816">
        <ele>65.66</ele>
        <time>2023-08-06T07:11:23.507Z</time>
      </trkpt>
      <trkpt lat="43.77422" lon="4.26802">
        <ele>66.42</ele>
        <time>2023-08-06T07:11:33.645Z</time>
      </trkpt>
      <trkpt lat="43.77419" lon="4.2679">
        <ele>66.93</ele>
        <time>2023-08-06T07:11:43.782Z</time>
      </trkpt>
      <trkpt lat="43.77414" lon="4.26779">
        <ele>68.5</ele>
        <time>2023-08-06T07:11:53.908Z</time>
      </trkpt>
      <trkpt lat="43.77408" lon="4.26767">
        <ele>68.67</ele>
        <time>2023-08-06T07:12:04.059Z</time>
      </trkpt>
      <trkpt lat="43.77404" lon="4.26753">
        <ele>71.53</ele>
        <time>2023-08-06T07:12:14.197Z</time>
      </trkpt>
      <trkpt lat="43.77404" lon="4.26738">
        <ele>70.49</ele>
        <time>2023-08-06T07:12:24.335Z</time>
      </trkpt>
      <trkpt lat="43.77395" lon="4.26731">
        <ele>73.49</ele>
        <time>2023-08-06T07:12:34.474Z</time>
      </trkpt>
      <trkpt lat="43.77386" lon="4.26737">
        <ele>72.3</ele>
        <time>2023-08-06T07:12:44.718Z</time>
      </trkpt>
      <trkpt lat="43.77379" lon="4.2674">
        <ele>70.62</ele>
        <time>2023-08-06T07:12:55.390Z</time>
      </trkpt>
      <trkpt lat="43.77377" lon="4.2674">
        <ele>69.27</ele>
        <time>2023-08-06T07:13:05.528Z</time>
      </trkpt>
      <trkpt lat="43.77374" lon="4.26739">
        <ele>69.01</ele>
        <time>2023-08-06T07:13:16.199Z</time>
      </trkpt>
      <trkpt lat="43.77362" lon="4.26737">
        <ele>68.7</ele>
        <time>2023-08-06T07:13:26.338Z</time>
      </trkpt>
      <trkpt lat="43.7735" lon="4.26743">
        <ele>68.37</ele>
        <time>2023-08-06T07:13:36.476Z</time>
      </trkpt>
      <trkpt lat="43.77354" lon="4.26749">
        <ele>65.55</ele>
        <time>2023-08-06T07:13:46.613Z</time>
      </trkpt>
      <trkpt lat="43.77351" lon="4.26745">
        <ele>66.9</ele>
        <time>2023-08-06T07:13:57.286Z</time>
      </trkpt>
      <trkpt lat="43.77351" lon="4.26744">
        <ele>66.01</ele>
        <time>2023-08-06T07:14:08.490Z</time>
      </trkpt>
      <trkpt lat="43.7735" lon="4.2674">
        <ele>67.62</ele>
        <time>2023-08-06T07:14:19.171Z</time>
      </trkpt>
      <trkpt lat="43.77349" lon="4.26733">
        <ele>69.67</ele>
        <time>2023-08-06T07:14:29.309Z</time>
      </trkpt>
      <trkpt lat="43.77347" lon="4.26717">
        <ele>69.53</ele>
        <time>2023-08-06T07:14:39.446Z</time>
      </trkpt>
      <trkpt lat="43.77348" lon="4.26698">
        <ele>70.76</ele>
        <time>2023-08-06T07:14:49.585Z</time>
      </trkpt>
      <trkpt lat="43.77349" lon="4.26684">
        <ele>71.39</ele>
        <time>2023-08-06T07:15:00.256Z</time>
      </trkpt>
      <trkpt lat="43.77349" lon="4.26673">
        <ele>71.79</ele>
        <time>2023-08-06T07:15:10.500Z</time>
      </trkpt>
      <trkpt lat="43.77348" lon="4.26658">
        <ele>73.71</ele>
        <time>2023-08-06T07:15:20.639Z</time>
      </trkpt>
      <trkpt lat="43.77342" lon="4.26645">
        <ele>73.36</ele>
        <time>2023-08-06T07:15:31.311Z</time>
      </trkpt>
      <trkpt lat="43.77344" lon="4.26644">
        <ele>73.97</ele>
        <time>2023-08-06T07:15:41.448Z</time>
      </trkpt>
      <trkpt lat="43.77343" lon="4.26645">
        <ele>73.3</ele>
        <time>2023-08-06T07:15:51.586Z</time>
      </trkpt>
      <trkpt lat="43.77342" lon="4.26642">
        <ele>74.3</ele>
        <time>2023-08-06T07:16:02.258Z</time>
      </trkpt>
      <trkpt lat="43.77333" lon="4.26625">
        <ele>74.75</ele>
        <time>2023-08-06T07:16:12.438Z</time>
      </trkpt>
      <trkpt lat="43.77329" lon="4.26606">
        <ele>73.52</ele>
        <time>2023-08-06T07:16:23.181Z</time>
      </trkpt>
      <trkpt lat="43.77327" lon="4.26591">
        <ele>73.32</ele>
        <time>2023-08-06T07:16:33.312Z</time>
      </trkpt>
      <trkpt lat="43.77314" lon="4.26587">
        <ele>73.25</ele>
        <time>2023-08-06T07:16:43.448Z</time>
      </trkpt>
      <trkpt lat="43.77307" lon="4.26581">
        <ele>72.12</ele>
        <time>2023-08-06T07:16:53.587Z</time>
      </trkpt>
      <trkpt lat="43.77295" lon="4.26586">
        <ele>71.82</ele>
        <time>2023-08-06T07:17:03.721Z</time>
      </trkpt>
      <trkpt lat="43.77282" lon="4.26587">
        <ele>70.91</ele>
        <time>2023-08-06T07:17:13.862Z</time>
      </trkpt>
      <trkpt lat="43.77271" lon="4.26595">
        <ele>71.21</ele>
        <time>2023-08-06T07:17:24.542Z</time>
      </trkpt>
      <trkpt lat="43.77264" lon="4.26607">
        <ele>72.08</ele>
        <time>2023-08-06T07:17:34.671Z</time>
      </trkpt>
      <trkpt lat="43.77256" lon="4.26597">
        <ele>69.74</ele>
        <time>2023-08-06T07:17:45.342Z</time>
      </trkpt>
      <trkpt lat="43.77251" lon="4.26583">
        <ele>69.58</ele>
        <time>2023-08-06T07:17:55.480Z</time>
      </trkpt>
      <trkpt lat="43.77241" lon="4.26589">
        <ele>69.36</ele>
        <time>2023-08-06T07:18:05.618Z</time>
      </trkpt>
      <trkpt lat="43.77235" lon="4.26579">
        <ele>67.55</ele>
        <time>2023-08-06T07:18:15.755Z</time>
      </trkpt>
      <trkpt lat="43.77225" lon="4.26577">
        <ele>66.49</ele>
        <time>2023-08-06T07:18:25.894Z</time>
      </trkpt>
      <trkpt lat="43.77213" lon="4.26579">
        <ele>64.89</ele>
        <time>2023-08-06T07:18:36.031Z</time>
      </trkpt>
      <trkpt lat="43.77208" lon="4.26566">
        <ele>65.65</ele>
        <time>2023-08-06T07:18:46.168Z</time>
      </trkpt>
      <trkpt lat="43.77206" lon="4.26555">
        <ele>63.89</ele>
        <time>2023-08-06T07:18:56.307Z</time>
      </trkpt>
      <trkpt lat="43.77205" lon="4.26553">
        <ele>63.63</ele>
        <time>2023-08-06T07:19:23.484Z</time>
      </trkpt>
      <trkpt lat="43.77205" lon="4.26551">
        <ele>62.52</ele>
        <time>2023-08-06T07:19:33.485Z</time>
      </trkpt>
      <trkpt lat="43.77205" lon="4.2655">
        <ele>62.6</ele>
        <time>2023-08-06T07:19:49.663Z</time>
      </trkpt>
      <trkpt lat="43.77207" lon="4.26548">
        <ele>61.61</ele>
        <time>2023-08-06T07:19:59.799Z</time>
      </trkpt>
      <trkpt lat="43.77213" lon="4.26545">
        <ele>63.38</ele>
        <time>2023-08-06T07:20:09.937Z</time>
      </trkpt>
      <trkpt lat="43.77234" lon="4.26542">
        <ele>63.11</ele>
        <time>2023-08-06T07:20:20.074Z</time>
      </trkpt>
      <trkpt lat="43.77244" lon="4.26542">
        <ele>60.34</ele>
        <time>2023-08-06T07:20:30.213Z</time>
      </trkpt>
      <trkpt lat="43.77245" lon="4.26546">
        <ele>63.45</ele>
        <time>2023-08-06T07:20:49.955Z</time>
      </trkpt>
      <trkpt lat="43.77243" lon="4.26538">
        <ele>62.37</ele>
        <time>2023-08-06T07:21:00.093Z</time>
      </trkpt>
      <trkpt lat="43.77244" lon="4.26538">
        <ele>62.32</ele>
        <time>2023-08-06T07:21:15.565Z</time>
      </trkpt>
      <trkpt lat="43.77249" lon="4.26538">
        <ele>62.83</ele>
        <time>2023-08-06T07:21:25.703Z</time>
      </trkpt>
      <trkpt lat="43.77266" lon="4.2654">
        <ele>63.72</ele>
        <time>2023-08-06T07:21:36.352Z</time>
      </trkpt>
      <trkpt lat="43.77273" lon="4.26551">
        <ele>65.72</ele>
        <time>2023-08-06T07:21:46.512Z</time>
      </trkpt>
      <trkpt lat="43.77279" lon="4.26561">
        <ele>65.75</ele>
        <time>2023-08-06T07:21:56.649Z</time>
      </trkpt>
      <trkpt lat="43.77284" lon="4.2657">
        <ele>65.6</ele>
        <time>2023-08-06T07:22:06.787Z</time>
      </trkpt>
      <trkpt lat="43.77294" lon="4.26562">
        <ele>67.12</ele>
        <time>2023-08-06T07:22:16.925Z</time>
      </trkpt>
      <trkpt lat="43.77302" lon="4.26551">
        <ele>68.05</ele>
        <time>2023-08-06T07:22:27.061Z</time>
      </trkpt>
      <trkpt lat="43.77312" lon="4.2654">
        <ele>66.93</ele>
        <time>2023-08-06T07:22:37.201Z</time>
      </trkpt>
      <trkpt lat="43.77325" lon="4.26543">
        <ele>68.21</ele>
        <time>2023-08-06T07:22:47.337Z</time>
      </trkpt>
      <trkpt lat="43.77333" lon="4.26535">
        <ele>68.06</ele>
        <time>2023-08-06T07:22:57.476Z</time>
      </trkpt>
      <trkpt lat="43.77337" lon="4.26523">
        <ele>65.95</ele>
        <time>2023-08-06T07:23:07.614Z</time>
      </trkpt>
      <trkpt lat="43.77347" lon="4.26519">
        <ele>66.14</ele>
        <time>2023-08-06T07:23:17.751Z</time>
      </trkpt>
      <trkpt lat="43.7736" lon="4.26523">
        <ele>68.25</ele>
        <time>2023-08-06T07:23:28.431Z</time>
      </trkpt>
      <trkpt lat="43.77367" lon="4.26537">
        <ele>68.81</ele>
        <time>2023-08-06T07:23:38.569Z</time>
      </trkpt>
      <trkpt lat="43.77375" lon="4.26544">
        <ele>69.96</ele>
        <time>2023-08-06T07:23:48.707Z</time>
      </trkpt>
      <trkpt lat="43.77384" lon="4.26543">
        <ele>70.94</ele>
        <time>2023-08-06T07:23:58.843Z</time>
      </trkpt>
      <trkpt lat="43.77395" lon="4.26544">
        <ele>72.13</ele>
        <time>2023-08-06T07:24:09.496Z</time>
      </trkpt>
      <trkpt lat="43.77407" lon="4.26548">
        <ele>72.13</ele>
        <time>2023-08-06T07:24:20.186Z</time>
      </trkpt>
      <trkpt lat="43.77416" lon="4.26557">
        <ele>75.12</ele>
        <time>2023-08-06T07:24:30.324Z</time>
      </trkpt>
      <trkpt lat="43.77427" lon="4.26561">
        <ele>74.75</ele>
        <time>2023-08-06T07:24:40.462Z</time>
      </trkpt>
      <trkpt lat="43.77428" lon="4.26551">
        <ele>76.61</ele>
        <time>2023-08-06T07:24:50.599Z</time>
      </trkpt>
      <trkpt lat="43.77427" lon="4.26538">
        <ele>74.42</ele>
        <time>2023-08-06T07:25:00.737Z</time>
      </trkpt>
      <trkpt lat="43.7742" lon="4.26534">
        <ele>73.21</ele>
        <time>2023-08-06T07:25:10.873Z</time>
      </trkpt>
      <trkpt lat="43.7742" lon="4.26516">
        <ele>71.98</ele>
        <time>2023-08-06T07:25:21.012Z</time>
      </trkpt>
      <trkpt lat="43.77422" lon="4.265">
        <ele>70.03</ele>
        <time>2023-08-06T07:25:31.149Z</time>
      </trkpt>
      <trkpt lat="43.77428" lon="4.26484">
        <ele>69.58</ele>
        <time>2023-08-06T07:25:41.287Z</time>
      </trkpt>
      <trkpt lat="43.7743" lon="4.26469">
        <ele>67.38</ele>
        <time>2023-08-06T07:25:51.425Z</time>
      </trkpt>
      <trkpt lat="43.7743" lon="4.26462">
        <ele>66.99</ele>
        <time>2023-08-06T07:26:01.561Z</time>
      </trkpt>
      <trkpt lat="43.77429" lon="4.26464">
        <ele>66.37</ele>
        <time>2023-08-06T07:26:12.232Z</time>
      </trkpt>
      <trkpt lat="43.7743" lon="4.26463">
        <ele>66.72</ele>
        <time>2023-08-06T07:26:28.492Z</time>
      </trkpt>
      <trkpt lat="43.77429" lon="4.26463">
        <ele>66.62</ele>
        <time>2023-08-06T07:26:48.515Z</time>
      </trkpt>
      <trkpt lat="43.7743" lon="4.26467">
        <ele>69.32</ele>
        <time>2023-08-06T07:26:59.186Z</time>
      </trkpt>
      <trkpt lat="43.77433" lon="4.26473">
        <ele>68.17</ele>
        <time>2023-08-06T07:27:09.322Z</time>
      </trkpt>
      <trkpt lat="43.77441" lon="4.26487">
        <ele>70.74</ele>
        <time>2023-08-06T07:27:19.461Z</time>
      </trkpt>
      <trkpt lat="43.77449" lon="4.26484">
        <ele>71.9</ele>
        <time>2023-08-06T07:27:29.598Z</time>
      </trkpt>
      <trkpt lat="43.77458" lon="4.26477">
        <ele>70.85</ele>
        <time>2023-08-06T07:27:39.735Z</time>
      </trkpt>
      <trkpt lat="43.77463" lon="4.26464">
        <ele>69.72</ele>
        <time>2023-08-06T07:27:49.872Z</time>
      </trkpt>
      <trkpt lat="43.77475" lon="4.2646">
        <ele>69.43</ele>
        <time>2023-08-06T07:28:00.009Z</time>
      </trkpt>
      <trkpt lat="43.77478" lon="4.26474">
        <ele>71.26</ele>
        <time>2023-08-06T07:28:10.148Z</time>
      </trkpt>
      <trkpt lat="43.77481" lon="4.26486">
        <ele>72.8</ele>
        <time>2023-08-06T07:28:20.284Z</time>
      </trkpt>
      <trkpt lat="43.77486" lon="4.26496">
        <ele>74.38</ele>
        <time>2023-08-06T07:28:30.423Z</time>
      </trkpt>
      <trkpt lat="43.77486" lon="4.26495">
        <ele>74.17</ele>
        <time>2023-08-06T07:28:40.560Z</time>
      </trkpt>
      <trkpt lat="43.77486" lon="4.26498">
        <ele>75.37</ele>
        <time>2023-08-06T07:28:50.698Z</time>
      </trkpt>
      <trkpt lat="43.77486" lon="4.26517">
        <ele>77.55</ele>
        <time>2023-08-06T07:29:01.101Z</time>
      </trkpt>
      <trkpt lat="43.7749" lon="4.26532">
        <ele>76.95</ele>
        <time>2023-08-06T07:29:11.236Z</time>
      </trkpt>
      <trkpt lat="43.77499" lon="4.2654">
        <ele>79.59</ele>
        <time>2023-08-06T07:29:21.376Z</time>
      </trkpt>
      <trkpt lat="43.77508" lon="4.2653">
        <ele>78.49</ele>
        <time>2023-08-06T07:29:31.692Z</time>
      </trkpt>
      <trkpt lat="43.77521" lon="4.2653">
        <ele>78.74</ele>
        <time>2023-08-06T07:29:41.829Z</time>
      </trkpt>
      <trkpt lat="43.77532" lon="4.26537">
        <ele>78.67</ele>
        <time>2023-08-06T07:29:52.469Z</time>
      </trkpt>
      <trkpt lat="43.77543" lon="4.26534">
        <ele>80.2</ele>
        <time>2023-08-06T07:30:02.627Z</time>
      </trkpt>
      <trkpt lat="43.77554" lon="4.26529">
        <ele>78.45</ele>
        <time>2023-08-06T07:30:13.311Z</time>
      </trkpt>
      <trkpt lat="43.77563" lon="4.26521">
        <ele>78.29</ele>
        <time>2023-08-06T07:30:23.450Z</time>
      </trkpt>
      <trkpt lat="43.77576" lon="4.26525">
        <ele>78.41</ele>
        <time>2023-08-06T07:30:33.585Z</time>
      </trkpt>
      <trkpt lat="43.77589" lon="4.26525">
        <ele>78.89</ele>
        <time>2023-08-06T07:30:43.722Z</time>
      </trkpt>
      <trkpt lat="43.77601" lon="4.26523">
        <ele>77.31</ele>
        <time>2023-08-06T07:30:53.860Z</time>
      </trkpt>
      <trkpt lat="43.7761" lon="4.26527">
        <ele>78.19</ele>
        <time>2023-08-06T07:31:04.318Z</time>
      </trkpt>
      <trkpt lat="43.77625" lon="4.26531">
        <ele>79.78</ele>
        <time>2023-08-06T07:31:14.456Z</time>
      </trkpt>
      <trkpt lat="43.77635" lon="4.26523">
        <ele>78.79</ele>
        <time>2023-08-06T07:31:24.594Z</time>
      </trkpt>
      <trkpt lat="43.77634" lon="4.26509">
        <ele>77.83</ele>
        <time>2023-08-06T07:31:34.730Z</time>
      </trkpt>
      <trkpt lat="43.77636" lon="4.26493">
        <ele>75.67</ele>
        <time>2023-08-06T07:31:45.407Z</time>
      </trkpt>
      <trkpt lat="43.77636" lon="4.26479">
        <ele>73.88</ele>
        <time>2023-08-06T07:31:55.549Z</time>
      </trkpt>
      <trkpt lat="43.7764" lon="4.26466">
        <ele>72.04</ele>
        <time>2023-08-06T07:32:05.687Z</time>
      </trkpt>
      <trkpt lat="43.7764" lon="4.26464">
        <ele>70.91</ele>
        <time>2023-08-06T07:32:15.811Z</time>
      </trkpt>
      <trkpt lat="43.77642" lon="4.26446">
        <ele>69.11</ele>
        <time>2023-08-06T07:32:25.932Z</time>
      </trkpt>
      <trkpt lat="43.77644" lon="4.2643">
        <ele>66.53</ele>
        <time>2023-08-06T07:32:36.099Z</time>
      </trkpt>
      <trkpt lat="43.77643" lon="4.26417">
        <ele>64.11</ele>
        <time>2023-08-06T07:32:46.225Z</time>
      </trkpt>
      <trkpt lat="43.77642" lon="4.26405">
        <ele>63.78</ele>
        <time>2023-08-06T07:32:56.375Z</time>
      </trkpt>
      <trkpt lat="43.77648" lon="4.26392">
        <ele>61.28</ele>
        <time>2023-08-06T07:33:06.512Z</time>
      </trkpt>
      <trkpt lat="43.77648" lon="4.26377">
        <ele>60.18</ele>
        <time>2023-08-06T07:33:16.650Z</time>
      </trkpt>
      <trkpt lat="43.7765" lon="4.26364">
        <ele>59.06</ele>
        <time>2023-08-06T07:33:27.321Z</time>
      </trkpt>
      <trkpt lat="43.77649" lon="4.26356">
        <ele>57.7</ele>
        <time>2023-08-06T07:33:37.459Z</time>
      </trkpt>
      <trkpt lat="43.77655" lon="4.26348">
        <ele>57.07</ele>
        <time>2023-08-06T07:33:47.595Z</time>
      </trkpt>
      <trkpt lat="43.77652" lon="4.26351">
        <ele>56.31</ele>
        <time>2023-08-06T07:33:58.267Z</time>
      </trkpt>
      <trkpt lat="43.77653" lon="4.26349">
        <ele>57.55</ele>
        <time>2023-08-06T07:34:08.405Z</time>
      </trkpt>
      <trkpt lat="43.77656" lon="4.26333">
        <ele>58.64</ele>
        <time>2023-08-06T07:34:18.543Z</time>
      </trkpt>
      <trkpt lat="43.77665" lon="4.26318">
        <ele>57.63</ele>
        <time>2023-08-06T07:34:28.679Z</time>
      </trkpt>
      <trkpt lat="43.77662" lon="4.26306">
        <ele>58.48</ele>
        <time>2023-08-06T07:34:38.805Z</time>
      </trkpt>
      <trkpt lat="43.77663" lon="4.26293">
        <ele>57.6</ele>
        <time>2023-08-06T07:34:48.956Z</time>
      </trkpt>
      <trkpt lat="43.77675" lon="4.26298">
        <ele>58.8</ele>
        <time>2023-08-06T07:34:59.094Z</time>
      </trkpt>
      <trkpt lat="43.77686" lon="4.26299">
        <ele>58.65</ele>
        <time>2023-08-06T07:35:09.230Z</time>
      </trkpt>
      <trkpt lat="43.77695" lon="4.263">
        <ele>58.45</ele>
        <time>2023-08-06T07:35:19.369Z</time>
      </trkpt>
      <trkpt lat="43.77706" lon="4.26303">
        <ele>56.91</ele>
        <time>2023-08-06T07:35:29.507Z</time>
      </trkpt>
      <trkpt lat="43.77715" lon="4.26299">
        <ele>59.3</ele>
        <time>2023-08-06T07:35:39.645Z</time>
      </trkpt>
      <trkpt lat="43.77727" lon="4.26296">
        <ele>58.87</ele>
        <time>2023-08-06T07:35:49.781Z</time>
      </trkpt>
      <trkpt lat="43.77739" lon="4.26292">
        <ele>58.58</ele>
        <time>2023-08-06T07:35:59.920Z</time>
      </trkpt>
      <trkpt lat="43.77749" lon="4.26286">
        <ele>61.24</ele>
        <time>2023-08-06T07:36:10.590Z</time>
      </trkpt>
      <trkpt lat="43.77759" lon="4.26281">
        <ele>60.14</ele>
        <time>2023-08-06T07:36:20.726Z</time>
      </trkpt>
      <trkpt lat="43.77769" lon="4.26274">
        <ele>61.81</ele>
        <time>2023-08-06T07:36:30.866Z</time>
      </trkpt>
      <trkpt lat="43.77779" lon="4.26265">
        <ele>62.42</ele>
        <time>2023-08-06T07:36:41.005Z</time>
      </trkpt>
      <trkpt lat="43.77787" lon="4.26253">
        <ele>63.2</ele>
        <time>2023-08-06T07:36:51.142Z</time>
      </trkpt>
      <trkpt lat="43.77795" lon="4.26243">
        <ele>63.75</ele>
        <time>2023-08-06T07:37:01.269Z</time>
      </trkpt>
      <trkpt lat="43.77805" lon="4.26232">
        <ele>63.99</ele>
        <time>2023-08-06T07:37:11.418Z</time>
      </trkpt>
      <trkpt lat="43.77813" lon="4.26222">
        <ele>64</ele>
        <time>2023-08-06T07:37:21.557Z</time>
      </trkpt>
      <trkpt lat="43.77821" lon="4.2621">
        <ele>64.81</ele>
        <time>2023-08-06T07:37:31.695Z</time>
      </trkpt>
      <trkpt lat="43.77828" lon="4.26199">
        <ele>65.58</ele>
        <time>2023-08-06T07:37:41.833Z</time>
      </trkpt>
      <trkpt lat="43.77838" lon="4.2619">
        <ele>66.82</ele>
        <time>2023-08-06T07:37:51.970Z</time>
      </trkpt>
      <trkpt lat="43.77848" lon="4.26191">
        <ele>66.31</ele>
        <time>2023-08-06T07:38:02.109Z</time>
      </trkpt>
      <trkpt lat="43.77857" lon="4.26188">
        <ele>67.95</ele>
        <time>2023-08-06T07:38:12.247Z</time>
      </trkpt>
      <trkpt lat="43.77866" lon="4.26191">
        <ele>66.95</ele>
        <time>2023-08-06T07:38:22.687Z</time>
      </trkpt>
      <trkpt lat="43.7788" lon="4.26189">
        <ele>67.66</ele>
        <time>2023-08-06T07:38:32.825Z</time>
      </trkpt>
      <trkpt lat="43.7789" lon="4.26188">
        <ele>68.32</ele>
        <time>2023-08-06T07:38:42.963Z</time>
      </trkpt>
      <trkpt lat="43.77901" lon="4.2619">
        <ele>68.48</ele>
        <time>2023-08-06T07:38:53.100Z</time>
      </trkpt>
      <trkpt lat="43.77912" lon="4.26192">
        <ele>68.61</ele>
        <time>2023-08-06T07:39:03.256Z</time>
      </trkpt>
      <trkpt lat="43.77923" lon="4.26189">
        <ele>70.73</ele>
        <time>2023-08-06T07:39:13.364Z</time>
      </trkpt>
      <trkpt lat="43.77935" lon="4.26192">
        <ele>70.49</ele>
        <time>2023-08-06T07:39:23.533Z</time>
      </trkpt>
      <trkpt lat="43.77944" lon="4.2619">
        <ele>71.22</ele>
        <time>2023-08-06T07:39:33.671Z</time>
      </trkpt>
      <trkpt lat="43.77954" lon="4.26179">
        <ele>71.88</ele>
        <time>2023-08-06T07:39:44.323Z</time>
      </trkpt>
      <trkpt lat="43.77962" lon="4.26171">
        <ele>71.63</ele>
        <time>2023-08-06T07:39:54.481Z</time>
      </trkpt>
      <trkpt lat="43.77973" lon="4.26167">
        <ele>71.72</ele>
        <time>2023-08-06T07:40:04.606Z</time>
      </trkpt>
      <trkpt lat="43.77979" lon="4.26157">
        <ele>75.25</ele>
        <time>2023-08-06T07:40:14.757Z</time>
      </trkpt>
      <trkpt lat="43.77985" lon="4.26148">
        <ele>75.97</ele>
        <time>2023-08-06T07:40:24.894Z</time>
      </trkpt>
      <trkpt lat="43.77992" lon="4.26137">
        <ele>76.46</ele>
        <time>2023-08-06T07:40:35.033Z</time>
      </trkpt>
      <trkpt lat="43.77998" lon="4.26121">
        <ele>76.14</ele>
        <time>2023-08-06T07:40:45.170Z</time>
      </trkpt>
      <trkpt lat="43.78001" lon="4.26116">
        <ele>75.95</ele>
        <time>2023-08-06T07:40:55.308Z</time>
      </trkpt>
      <trkpt lat="43.78001" lon="4.26113">
        <ele>79.06</ele>
        <time>2023-08-06T07:41:05.447Z</time>
      </trkpt>
      <trkpt lat="43.78004" lon="4.26095">
        <ele>81.54</ele>
        <time>2023-08-06T07:41:15.585Z</time>
      </trkpt>
      <trkpt lat="43.78021" lon="4.26076">
        <ele>82.51</ele>
        <time>2023-08-06T07:41:25.723Z</time>
      </trkpt>
      <trkpt lat="43.78029" lon="4.26069">
        <ele>82.72</ele>
        <time>2023-08-06T07:41:36.366Z</time>
      </trkpt>
      <trkpt lat="43.78038" lon="4.26055">
        <ele>84.35</ele>
        <time>2023-08-06T07:41:46.532Z</time>
      </trkpt>
      <trkpt lat="43.78042" lon="4.26039">
        <ele>84.65</ele>
        <time>2023-08-06T07:41:56.669Z</time>
      </trkpt>
      <trkpt lat="43.78044" lon="4.26026">
        <ele>87.46</ele>
        <time>2023-08-06T07:42:06.807Z</time>
      </trkpt>
      <trkpt lat="43.78049" lon="4.2602">
        <ele>85.98</ele>
        <time>2023-08-06T07:42:16.945Z</time>
      </trkpt>
      <trkpt lat="43.78059" lon="4.26012">
        <ele>89.57</ele>
        <time>2023-08-06T07:42:27.587Z</time>
      </trkpt>
      <trkpt lat="43.7806" lon="4.26011">
        <ele>88.91</ele>
        <time>2023-08-06T07:42:37.754Z</time>
      </trkpt>
      <trkpt lat="43.78059" lon="4.26007">
        <ele>89.4</ele>
        <time>2023-08-06T07:42:47.882Z</time>
      </trkpt>
      <trkpt lat="43.7806" lon="4.25981">
        <ele>90.64</ele>
        <time>2023-08-06T07:42:58.137Z</time>
      </trkpt>
      <trkpt lat="43.78064" lon="4.25976">
        <ele>91.75</ele>
        <time>2023-08-06T07:43:08.274Z</time>
      </trkpt>
      <trkpt lat="43.78071" lon="4.25958">
        <ele>93.22</ele>
        <time>2023-08-06T07:43:18.412Z</time>
      </trkpt>
      <trkpt lat="43.78077" lon="4.25943">
        <ele>92.77</ele>
        <time>2023-08-06T07:43:28.658Z</time>
      </trkpt>
      <trkpt lat="43.78079" lon="4.25932">
        <ele>94.46</ele>
        <time>2023-08-06T07:43:38.795Z</time>
      </trkpt>
      <trkpt lat="43.78081" lon="4.25931">
        <ele>92.24</ele>
        <time>2023-08-06T07:44:12.945Z</time>
      </trkpt>
      <trkpt lat="43.78078" lon="4.25943">
        <ele>92.47</ele>
        <time>2023-08-06T07:44:23.616Z</time>
      </trkpt>
      <trkpt lat="43.78076" lon="4.25943">
        <ele>94.02</ele>
        <time>2023-08-06T07:44:34.288Z</time>
      </trkpt>
      <trkpt lat="43.78075" lon="4.25938">
        <ele>93.19</ele>
        <time>2023-08-06T07:44:44.427Z</time>
      </trkpt>
      <trkpt lat="43.78073" lon="4.25934">
        <ele>92.95</ele>
        <time>2023-08-06T07:44:54.514Z</time>
      </trkpt>
      <trkpt lat="43.78073" lon="4.25933">
        <ele>94.07</ele>
        <time>2023-08-06T07:45:04.702Z</time>
      </trkpt>
      <trkpt lat="43.78071" lon="4.25935">
        <ele>93.38</ele>
        <time>2023-08-06T07:45:15.454Z</time>
      </trkpt>
      <trkpt lat="43.7807" lon="4.25934">
        <ele>94.51</ele>
        <time>2023-08-06T07:45:25.514Z</time>
      </trkpt>
      <trkpt lat="43.78071" lon="4.25934">
        <ele>93.08</ele>
        <time>2023-08-06T07:45:59.600Z</time>
      </trkpt>
      <trkpt lat="43.7807" lon="4.25933">
        <ele>93.79</ele>
        <time>2023-08-06T07:46:13.482Z</time>
      </trkpt>
      <trkpt lat="43.78069" lon="4.25934">
        <ele>93.75</ele>
        <time>2023-08-06T07:46:25.221Z</time>
      </trkpt>
      <trkpt lat="43.78067" lon="4.25936">
        <ele>95.53</ele>
        <time>2023-08-06T07:46:35.365Z</time>
      </trkpt>
      <trkpt lat="43.78063" lon="4.25936">
        <ele>91.87</ele>
        <time>2023-08-06T07:46:45.560Z</time>
      </trkpt>
      <trkpt lat="43.78064" lon="4.25924">
        <ele>93.48</ele>
        <time>2023-08-06T07:46:55.698Z</time>
      </trkpt>
      <trkpt lat="43.78076" lon="4.25916">
        <ele>94.07</ele>
        <time>2023-08-06T07:47:06.367Z</time>
      </trkpt>
      <trkpt lat="43.78076" lon="4.25907">
        <ele>94.8</ele>
        <time>2023-08-06T07:47:16.507Z</time>
      </trkpt>
      <trkpt lat="43.7807" lon="4.259">
        <ele>93.53</ele>
        <time>2023-08-06T07:47:26.646Z</time>
      </trkpt>
      <trkpt lat="43.78067" lon="4.25896">
        <ele>94.06</ele>
        <time>2023-08-06T07:47:36.783Z</time>
      </trkpt>
      <trkpt lat="43.78063" lon="4.25885">
        <ele>92.89</ele>
        <time>2023-08-06T07:47:46.922Z</time>
      </trkpt>
      <trkpt lat="43.78059" lon="4.25881">
        <ele>92.34</ele>
        <time>2023-08-06T07:47:57.060Z</time>
      </trkpt>
      <trkpt lat="43.78056" lon="4.25874">
        <ele>91.29</ele>
        <time>2023-08-06T07:48:07.199Z</time>
      </trkpt>
      <trkpt lat="43.78055" lon="4.25869">
        <ele>91.9</ele>
        <time>2023-08-06T07:48:17.337Z</time>
      </trkpt>
      <trkpt lat="43.78052" lon="4.25858">
        <ele>92.15</ele>
        <time>2023-08-06T07:48:27.475Z</time>
      </trkpt>
      <trkpt lat="43.78035" lon="4.25841">
        <ele>89.77</ele>
        <time>2023-08-06T07:48:37.613Z</time>
      </trkpt>
      <trkpt lat="43.78024" lon="4.25839">
        <ele>89.82</ele>
        <time>2023-08-06T07:48:47.750Z</time>
      </trkpt>
      <trkpt lat="43.78012" lon="4.25837">
        <ele>88.38</ele>
        <time>2023-08-06T07:48:58.428Z</time>
      </trkpt>
      <trkpt lat="43.78004" lon="4.2583">
        <ele>88.51</ele>
        <time>2023-08-06T07:49:08.530Z</time>
      </trkpt>
      <trkpt lat="43.77995" lon="4.25824">
        <ele>86.56</ele>
        <time>2023-08-06T07:49:18.698Z</time>
      </trkpt>
      <trkpt lat="43.77987" lon="4.25828">
        <ele>86.95</ele>
        <time>2023-08-06T07:49:28.837Z</time>
      </trkpt>
      <trkpt lat="43.77977" lon="4.25831">
        <ele>85.84</ele>
        <time>2023-08-06T07:49:38.975Z</time>
      </trkpt>
      <trkpt lat="43.77972" lon="4.25839">
        <ele>85.21</ele>
        <time>2023-08-06T07:49:49.220Z</time>
      </trkpt>
      <trkpt lat="43.7796" lon="4.25833">
        <ele>84.9</ele>
        <time>2023-08-06T07:49:59.358Z</time>
      </trkpt>
      <trkpt lat="43.77953" lon="4.25819">
        <ele>84.41</ele>
        <time>2023-08-06T07:50:09.496Z</time>
      </trkpt>
      <trkpt lat="43.77948" lon="4.25806">
        <ele>85.51</ele>
        <time>2023-08-06T07:50:19.635Z</time>
      </trkpt>
      <trkpt lat="43.77941" lon="4.25797">
        <ele>86.52</ele>
        <time>2023-08-06T07:50:29.866Z</time>
      </trkpt>
      <trkpt lat="43.77933" lon="4.25807">
        <ele>86.51</ele>
        <time>2023-08-06T07:50:40.017Z</time>
      </trkpt>
      <trkpt lat="43.77922" lon="4.25811">
        <ele>85.77</ele>
        <time>2023-08-06T07:50:50.156Z</time>
      </trkpt>
      <trkpt lat="43.77924" lon="4.25823">
        <ele>84.29</ele>
        <time>2023-08-06T07:51:00.294Z</time>
      </trkpt>
      <trkpt lat="43.77925" lon="4.25836">
        <ele>84.3</ele>
        <time>2023-08-06T07:51:10.432Z</time>
      </trkpt>
      <trkpt lat="43.77931" lon="4.25847">
        <ele>83.4</ele>
        <time>2023-08-06T07:51:20.569Z</time>
      </trkpt>
      <trkpt lat="43.77939" lon="4.25857">
        <ele>84.27</ele>
        <time>2023-08-06T07:51:30.691Z</time>
      </trkpt>
      <trkpt lat="43.77942" lon="4.2587">
        <ele>84.66</ele>
        <time>2023-08-06T07:51:40.846Z</time>
      </trkpt>
      <trkpt lat="43.77943" lon="4.25883">
        <ele>86.45</ele>
        <time>2023-08-06T07:51:51.517Z</time>
      </trkpt>
      <trkpt lat="43.77945" lon="4.25901">
        <ele>86.15</ele>
        <time>2023-08-06T07:52:01.655Z</time>
      </trkpt>
      <trkpt lat="43.7795" lon="4.25913">
        <ele>86.55</ele>
        <time>2023-08-06T07:52:11.899Z</time>
      </trkpt>
      <trkpt lat="43.77954" lon="4.25926">
        <ele>86.72</ele>
        <time>2023-08-06T07:52:22.039Z</time>
      </trkpt>
      <trkpt lat="43.77958" lon="4.25937">
        <ele>84.49</ele>
        <time>2023-08-06T07:52:32.212Z</time>
      </trkpt>
      <trkpt lat="43.77962" lon="4.25951">
        <ele>87.47</ele>
        <time>2023-08-06T07:52:42.349Z</time>
      </trkpt>
      <trkpt lat="43.77961" lon="4.25957">
        <ele>86.18</ele>
        <time>2023-08-06T07:52:52.451Z</time>
      </trkpt>
      <trkpt lat="43.77957" lon="4.25958">
        <ele>86.65</ele>
        <time>2023-08-06T07:53:02.634Z</time>
      </trkpt>
      <trkpt lat="43.77952" lon="4.25954">
        <ele>85.59</ele>
        <time>2023-08-06T07:53:12.772Z</time>
      </trkpt>
      <trkpt lat="43.7793" lon="4.25945">
        <ele>83.63</ele>
        <time>2023-08-06T07:53:23.445Z</time>
      </trkpt>
      <trkpt lat="43.77919" lon="4.25939">
        <ele>81.84</ele>
        <time>2023-08-06T07:53:33.583Z</time>
      </trkpt>
      <trkpt lat="43.7791" lon="4.25942">
        <ele>79.61</ele>
        <time>2023-08-06T07:53:43.721Z</time>
      </trkpt>
      <trkpt lat="43.77903" lon="4.25948">
        <ele>78.49</ele>
        <time>2023-08-06T07:53:53.859Z</time>
      </trkpt>
      <trkpt lat="43.77903" lon="4.25951">
        <ele>77.81</ele>
        <time>2023-08-06T07:54:03.995Z</time>
      </trkpt>
      <trkpt lat="43.77899" lon="4.25955">
        <ele>75.82</ele>
        <time>2023-08-06T07:54:14.133Z</time>
      </trkpt>
      <trkpt lat="43.77894" lon="4.25965">
        <ele>75.18</ele>
        <time>2023-08-06T07:54:24.272Z</time>
      </trkpt>
      <trkpt lat="43.77887" lon="4.2598">
        <ele>76.74</ele>
        <time>2023-08-06T07:54:34.410Z</time>
      </trkpt>
      <trkpt lat="43.77882" lon="4.25993">
        <ele>74.98</ele>
        <time>2023-08-06T07:54:44.547Z</time>
      </trkpt>
      <trkpt lat="43.77872" lon="4.26019">
        <ele>74.22</ele>
        <time>2023-08-06T07:54:54.686Z</time>
      </trkpt>
      <trkpt lat="43.77865" lon="4.26037">
        <ele>73.97</ele>
        <time>2023-08-06T07:55:04.823Z</time>
      </trkpt>
      <trkpt lat="43.77863" lon="4.26051">
        <ele>72.85</ele>
        <time>2023-08-06T07:55:14.960Z</time>
      </trkpt>
      <trkpt lat="43.77855" lon="4.26063">
        <ele>69.8</ele>
        <time>2023-08-06T07:55:25.099Z</time>
      </trkpt>
      <trkpt lat="43.77856" lon="4.26077">
        <ele>72.57</ele>
        <time>2023-08-06T07:55:35.237Z</time>
      </trkpt>
      <trkpt lat="43.77854" lon="4.26089">
        <ele>70.77</ele>
        <time>2023-08-06T07:55:45.375Z</time>
      </trkpt>
      <trkpt lat="43.77859" lon="4.26101">
        <ele>70.57</ele>
        <time>2023-08-06T07:55:55.489Z</time>
      </trkpt>
      <trkpt lat="43.77851" lon="4.26113">
        <ele>69.92</ele>
        <time>2023-08-06T07:56:05.650Z</time>
      </trkpt>
      <trkpt lat="43.77848" lon="4.26124">
        <ele>69.41</ele>
        <time>2023-08-06T07:56:15.787Z</time>
      </trkpt>
      <trkpt lat="43.77844" lon="4.26138">
        <ele>68.9</ele>
        <time>2023-08-06T07:56:25.926Z</time>
      </trkpt>
      <trkpt lat="43.77842" lon="4.2615">
        <ele>68.28</ele>
        <time>2023-08-06T07:56:36.596Z</time>
      </trkpt>
      <trkpt lat="43.77836" lon="4.26165">
        <ele>67.47</ele>
        <time>2023-08-06T07:56:46.734Z</time>
      </trkpt>
      <trkpt lat="43.77828" lon="4.26173">
        <ele>67.54</ele>
        <time>2023-08-06T07:56:56.835Z</time>
      </trkpt>
      <trkpt lat="43.77819" lon="4.26184">
        <ele>67.19</ele>
        <time>2023-08-06T07:57:07.011Z</time>
      </trkpt>
      <trkpt lat="43.77807" lon="4.26189">
        <ele>68.21</ele>
        <time>2023-08-06T07:57:17.149Z</time>
      </trkpt>
      <trkpt lat="43.77796" lon="4.26185">
        <ele>68.39</ele>
        <time>2023-08-06T07:57:27.286Z</time>
      </trkpt>
      <trkpt lat="43.77786" lon="4.26185">
        <ele>69.34</ele>
        <time>2023-08-06T07:57:37.424Z</time>
      </trkpt>
      <trkpt lat="43.7778" lon="4.26197">
        <ele>68.99</ele>
        <time>2023-08-06T07:57:47.562Z</time>
      </trkpt>
      <trkpt lat="43.7777" lon="4.26204">
        <ele>69.51</ele>
        <time>2023-08-06T07:57:57.688Z</time>
      </trkpt>
      <trkpt lat="43.7776" lon="4.2621">
        <ele>69.4</ele>
        <time>2023-08-06T07:58:07.838Z</time>
      </trkpt>
      <trkpt lat="43.77748" lon="4.26211">
        <ele>69.46</ele>
        <time>2023-08-06T07:58:17.976Z</time>
      </trkpt>
      <trkpt lat="43.77736" lon="4.26208">
        <ele>70.42</ele>
        <time>2023-08-06T07:58:28.648Z</time>
      </trkpt>
      <trkpt lat="43.77729" lon="4.26199">
        <ele>69.16</ele>
        <time>2023-08-06T07:58:38.786Z</time>
      </trkpt>
      <trkpt lat="43.77719" lon="4.26197">
        <ele>73.03</ele>
        <time>2023-08-06T07:58:48.924Z</time>
      </trkpt>
      <trkpt lat="43.77718" lon="4.2618">
        <ele>72.58</ele>
        <time>2023-08-06T07:58:59.062Z</time>
      </trkpt>
      <trkpt lat="43.7771" lon="4.26171">
        <ele>73.29</ele>
        <time>2023-08-06T07:59:09.209Z</time>
      </trkpt>
      <trkpt lat="43.77707" lon="4.26157">
        <ele>74.6</ele>
        <time>2023-08-06T07:59:19.347Z</time>
      </trkpt>
      <trkpt lat="43.77705" lon="4.26142">
        <ele>73.94</ele>
        <time>2023-08-06T07:59:29.485Z</time>
      </trkpt>
      <trkpt lat="43.777" lon="4.26129">
        <ele>74.35</ele>
        <time>2023-08-06T07:59:39.622Z</time>
      </trkpt>
      <trkpt lat="43.77692" lon="4.26121">
        <ele>72.32</ele>
        <time>2023-08-06T07:59:49.762Z</time>
      </trkpt>
      <trkpt lat="43.77697" lon="4.26106">
        <ele>72.88</ele>
        <time>2023-08-06T07:59:59.900Z</time>
      </trkpt>
      <trkpt lat="43.77691" lon="4.26092">
        <ele>72.35</ele>
        <time>2023-08-06T08:00:10.571Z</time>
      </trkpt>
      <trkpt lat="43.7769" lon="4.26076">
        <ele>70.87</ele>
        <time>2023-08-06T08:00:20.710Z</time>
      </trkpt>
      <trkpt lat="43.77685" lon="4.26064">
        <ele>70.84</ele>
        <time>2023-08-06T08:00:30.848Z</time>
      </trkpt>
      <trkpt lat="43.77674" lon="4.26065">
        <ele>68.92</ele>
        <time>2023-08-06T08:00:40.986Z</time>
      </trkpt>
      <trkpt lat="43.77662" lon="4.2606">
        <ele>68.02</ele>
        <time>2023-08-06T08:00:51.659Z</time>
      </trkpt>
      <trkpt lat="43.77649" lon="4.26057">
        <ele>65.48</ele>
        <time>2023-08-06T08:01:02.330Z</time>
      </trkpt>
      <trkpt lat="43.77639" lon="4.26065">
        <ele>63.63</ele>
        <time>2023-08-06T08:01:12.468Z</time>
      </trkpt>
      <trkpt lat="43.77634" lon="4.2605">
        <ele>63.52</ele>
        <time>2023-08-06T08:01:22.607Z</time>
      </trkpt>
      <trkpt lat="43.77622" lon="4.26048">
        <ele>63.26</ele>
        <time>2023-08-06T08:01:33.279Z</time>
      </trkpt>
      <trkpt lat="43.7761" lon="4.26046">
        <ele>61.55</ele>
        <time>2023-08-06T08:01:43.416Z</time>
      </trkpt>
      <trkpt lat="43.77599" lon="4.2605">
        <ele>59.97</ele>
        <time>2023-08-06T08:01:53.555Z</time>
      </trkpt>
      <trkpt lat="43.77589" lon="4.26048">
        <ele>60.39</ele>
        <time>2023-08-06T08:02:03.694Z</time>
      </trkpt>
      <trkpt lat="43.7758" lon="4.26051">
        <ele>60.04</ele>
        <time>2023-08-06T08:02:13.832Z</time>
      </trkpt>
      <trkpt lat="43.77579" lon="4.2606">
        <ele>60.1</ele>
        <time>2023-08-06T08:02:24.086Z</time>
      </trkpt>
      <trkpt lat="43.77571" lon="4.26071">
        <ele>59.67</ele>
        <time>2023-08-06T08:02:34.349Z</time>
      </trkpt>
      <trkpt lat="43.7756" lon="4.26079">
        <ele>58.6</ele>
        <time>2023-08-06T08:02:44.488Z</time>
      </trkpt>
      <trkpt lat="43.77552" lon="4.26089">
        <ele>56.31</ele>
        <time>2023-08-06T08:02:54.626Z</time>
      </trkpt>
      <trkpt lat="43.77541" lon="4.26084">
        <ele>59.06</ele>
        <time>2023-08-06T08:03:04.764Z</time>
      </trkpt>
      <trkpt lat="43.7754" lon="4.26079">
        <ele>58.82</ele>
        <time>2023-08-06T08:03:14.903Z</time>
      </trkpt>
      <trkpt lat="43.77529" lon="4.26066">
        <ele>58.13</ele>
        <time>2023-08-06T08:03:25.020Z</time>
      </trkpt>
      <trkpt lat="43.77518" lon="4.26059">
        <ele>61.62</ele>
        <time>2023-08-06T08:03:35.181Z</time>
      </trkpt>
      <trkpt lat="43.77511" lon="4.26049">
        <ele>61.03</ele>
        <time>2023-08-06T08:03:45.318Z</time>
      </trkpt>
      <trkpt lat="43.77504" lon="4.26042">
        <ele>65.26</ele>
        <time>2023-08-06T08:03:55.458Z</time>
      </trkpt>
      <trkpt lat="43.77496" lon="4.26034">
        <ele>62.8</ele>
        <time>2023-08-06T08:04:05.703Z</time>
      </trkpt>
      <trkpt lat="43.77486" lon="4.26026">
        <ele>65.61</ele>
        <time>2023-08-06T08:04:15.841Z</time>
      </trkpt>
      <trkpt lat="43.77483" lon="4.26009">
        <ele>64.09</ele>
        <time>2023-08-06T08:04:26.513Z</time>
      </trkpt>
      <trkpt lat="43.77474" lon="4.26001">
        <ele>65.82</ele>
        <time>2023-08-06T08:04:36.651Z</time>
      </trkpt>
      <trkpt lat="43.77465" lon="4.25989">
        <ele>66.48</ele>
        <time>2023-08-06T08:04:46.897Z</time>
      </trkpt>
      <trkpt lat="43.77462" lon="4.2598">
        <ele>68.06</ele>
        <time>2023-08-06T08:04:57.019Z</time>
      </trkpt>
      <trkpt lat="43.77462" lon="4.25969">
        <ele>67.26</ele>
        <time>2023-08-06T08:05:07.173Z</time>
      </trkpt>
      <trkpt lat="43.77455" lon="4.2595">
        <ele>66.05</ele>
        <time>2023-08-06T08:05:17.301Z</time>
      </trkpt>
      <trkpt lat="43.77444" lon="4.25946">
        <ele>66.12</ele>
        <time>2023-08-06T08:05:27.459Z</time>
      </trkpt>
      <trkpt lat="43.77437" lon="4.25934">
        <ele>65.96</ele>
        <time>2023-08-06T08:05:37.597Z</time>
      </trkpt>
      <trkpt lat="43.77435" lon="4.25919">
        <ele>69.94</ele>
        <time>2023-08-06T08:05:47.736Z</time>
      </trkpt>
      <trkpt lat="43.7743" lon="4.25904">
        <ele>69.05</ele>
        <time>2023-08-06T08:05:57.874Z</time>
      </trkpt>
      <trkpt lat="43.77428" lon="4.25892">
        <ele>72.21</ele>
        <time>2023-08-06T08:06:08.547Z</time>
      </trkpt>
      <trkpt lat="43.77425" lon="4.25885">
        <ele>71.37</ele>
        <time>2023-08-06T08:06:18.685Z</time>
      </trkpt>
      <trkpt lat="43.77418" lon="4.25866">
        <ele>72.14</ele>
        <time>2023-08-06T08:06:28.822Z</time>
      </trkpt>
      <trkpt lat="43.77409" lon="4.25858">
        <ele>76.44</ele>
        <time>2023-08-06T08:06:39.495Z</time>
      </trkpt>
      <trkpt lat="43.77406" lon="4.25857">
        <ele>76.71</ele>
        <time>2023-08-06T08:06:49.633Z</time>
      </trkpt>
      <trkpt lat="43.77404" lon="4.25855">
        <ele>74.59</ele>
        <time>2023-08-06T08:06:59.772Z</time>
      </trkpt>
      <trkpt lat="43.77402" lon="4.25853">
        <ele>77.39</ele>
        <time>2023-08-06T08:07:09.910Z</time>
      </trkpt>
      <trkpt lat="43.77401" lon="4.25854">
        <ele>79.25</ele>
        <time>2023-08-06T08:07:20.582Z</time>
      </trkpt>
      <trkpt lat="43.77397" lon="4.25852">
        <ele>74.43</ele>
        <time>2023-08-06T08:07:31.538Z</time>
      </trkpt>
      <trkpt lat="43.77395" lon="4.25852">
        <ele>76.88</ele>
        <time>2023-08-06T08:07:41.539Z</time>
      </trkpt>
      <trkpt lat="43.77394" lon="4.25851">
        <ele>76.27</ele>
        <time>2023-08-06T08:07:52.539Z</time>
      </trkpt>
      <trkpt lat="43.77394" lon="4.2585">
        <ele>78.15</ele>
        <time>2023-08-06T08:08:11.914Z</time>
      </trkpt>
      <trkpt lat="43.77388" lon="4.25848">
        <ele>77.56</ele>
        <time>2023-08-06T08:08:22.019Z</time>
      </trkpt>
      <trkpt lat="43.77379" lon="4.25847">
        <ele>77.43</ele>
        <time>2023-08-06T08:08:32.189Z</time>
      </trkpt>
      <trkpt lat="43.77376" lon="4.2585">
        <ele>77.91</ele>
        <time>2023-08-06T08:08:42.434Z</time>
      </trkpt>
      <trkpt lat="43.77373" lon="4.25854">
        <ele>83.91</ele>
        <time>2023-08-06T08:08:52.573Z</time>
      </trkpt>
      <trkpt lat="43.77367" lon="4.25859">
        <ele>84.17</ele>
        <time>2023-08-06T08:09:02.712Z</time>
      </trkpt>
      <trkpt lat="43.7736" lon="4.25869">
        <ele>84.98</ele>
        <time>2023-08-06T08:09:12.850Z</time>
      </trkpt>
      <trkpt lat="43.77355" lon="4.25878">
        <ele>85.3</ele>
        <time>2023-08-06T08:09:22.989Z</time>
      </trkpt>
      <trkpt lat="43.77353" lon="4.25886">
        <ele>84.57</ele>
        <time>2023-08-06T08:09:33.100Z</time>
      </trkpt>
      <trkpt lat="43.77354" lon="4.25906">
        <ele>84.24</ele>
        <time>2023-08-06T08:09:43.281Z</time>
      </trkpt>
      <trkpt lat="43.77352" lon="4.25912">
        <ele>85.1</ele>
        <time>2023-08-06T08:09:53.413Z</time>
      </trkpt>
      <trkpt lat="43.77345" lon="4.25919">
        <ele>86.72</ele>
        <time>2023-08-06T08:10:03.550Z</time>
      </trkpt>
      <trkpt lat="43.77328" lon="4.25946">
        <ele>86.87</ele>
        <time>2023-08-06T08:10:13.689Z</time>
      </trkpt>
      <trkpt lat="43.77332" lon="4.25959">
        <ele>84.95</ele>
        <time>2023-08-06T08:10:23.828Z</time>
      </trkpt>
      <trkpt lat="43.77339" lon="4.25969">
        <ele>83.09</ele>
        <time>2023-08-06T08:10:33.965Z</time>
      </trkpt>
      <trkpt lat="43.77336" lon="4.2598">
        <ele>83.28</ele>
        <time>2023-08-06T08:10:44.104Z</time>
      </trkpt>
      <trkpt lat="43.77339" lon="4.25996">
        <ele>82.96</ele>
        <time>2023-08-06T08:10:54.243Z</time>
      </trkpt>
      <trkpt lat="43.77342" lon="4.26009">
        <ele>83.19</ele>
        <time>2023-08-06T08:11:04.382Z</time>
      </trkpt>
      <trkpt lat="43.77333" lon="4.26019">
        <ele>83.95</ele>
        <time>2023-08-06T08:11:14.517Z</time>
      </trkpt>
      <trkpt lat="43.77339" lon="4.2603">
        <ele>81.4</ele>
        <time>2023-08-06T08:11:24.766Z</time>
      </trkpt>
      <trkpt lat="43.77336" lon="4.26042">
        <ele>81.12</ele>
        <time>2023-08-06T08:11:34.904Z</time>
      </trkpt>
      <trkpt lat="43.77328" lon="4.2605">
        <ele>80.98</ele>
        <time>2023-08-06T08:11:45.532Z</time>
      </trkpt>
      <trkpt lat="43.77325" lon="4.26062">
        <ele>78.81</ele>
        <time>2023-08-06T08:11:55.715Z</time>
      </trkpt>
      <trkpt lat="43.77322" lon="4.26069">
        <ele>78.52</ele>
        <time>2023-08-06T08:12:05.853Z</time>
      </trkpt>
      <trkpt lat="43.7732" lon="4.2607">
        <ele>78.1</ele>
        <time>2023-08-06T08:12:16.104Z</time>
      </trkpt>
      <trkpt lat="43.77317" lon="4.26075">
        <ele>76.96</ele>
        <time>2023-08-06T08:12:26.237Z</time>
      </trkpt>
      <trkpt lat="43.77305" lon="4.26102">
        <ele>75.81</ele>
        <time>2023-08-06T08:12:36.374Z</time>
      </trkpt>
      <trkpt lat="43.77304" lon="4.2611">
        <ele>73.39</ele>
        <time>2023-08-06T08:12:46.513Z</time>
      </trkpt>
      <trkpt lat="43.77302" lon="4.26114">
        <ele>72.25</ele>
        <time>2023-08-06T08:12:56.652Z</time>
      </trkpt>
      <trkpt lat="43.77297" lon="4.26118">
        <ele>72.45</ele>
        <time>2023-08-06T08:13:06.791Z</time>
      </trkpt>
      <trkpt lat="43.7728" lon="4.26128">
        <ele>72.49</ele>
        <time>2023-08-06T08:13:17.568Z</time>
      </trkpt>
      <trkpt lat="43.77276" lon="4.26122">
        <ele>72.32</ele>
        <time>2023-08-06T08:13:27.708Z</time>
      </trkpt>
      <trkpt lat="43.77273" lon="4.26118">
        <ele>73.93</ele>
        <time>2023-08-06T08:13:37.845Z</time>
      </trkpt>
      <trkpt lat="43.77262" lon="4.26107">
        <ele>73.88</ele>
        <time>2023-08-06T08:13:47.984Z</time>
      </trkpt>
      <trkpt lat="43.77255" lon="4.26096">
        <ele>72.94</ele>
        <time>2023-08-06T08:13:58.122Z</time>
      </trkpt>
      <trkpt lat="43.77256" lon="4.2609">
        <ele>74.84</ele>
        <time>2023-08-06T08:14:08.367Z</time>
      </trkpt>
      <trkpt lat="43.77254" lon="4.26076">
        <ele>77.86</ele>
        <time>2023-08-06T08:14:18.505Z</time>
      </trkpt>
      <trkpt lat="43.77253" lon="4.26073">
        <ele>76.71</ele>
        <time>2023-08-06T08:14:28.643Z</time>
      </trkpt>
      <trkpt lat="43.77247" lon="4.26072">
        <ele>77.33</ele>
        <time>2023-08-06T08:14:38.782Z</time>
      </trkpt>
      <trkpt lat="43.7724" lon="4.26071">
        <ele>74.83</ele>
        <time>2023-08-06T08:14:48.921Z</time>
      </trkpt>
      <trkpt lat="43.77235" lon="4.26064">
        <ele>75.84</ele>
        <time>2023-08-06T08:14:59.166Z</time>
      </trkpt>
      <trkpt lat="43.77215" lon="4.26053">
        <ele>73.76</ele>
        <time>2023-08-06T08:15:09.304Z</time>
      </trkpt>
      <trkpt lat="43.77201" lon="4.26054">
        <ele>72.94</ele>
        <time>2023-08-06T08:15:19.442Z</time>
      </trkpt>
      <trkpt lat="43.77193" lon="4.26062">
        <ele>72.07</ele>
        <time>2023-08-06T08:15:29.579Z</time>
      </trkpt>
      <trkpt lat="43.77193" lon="4.26064">
        <ele>71.35</ele>
        <time>2023-08-06T08:15:39.698Z</time>
      </trkpt>
      <trkpt lat="43.77191" lon="4.26068">
        <ele>70.39</ele>
        <time>2023-08-06T08:15:49.857Z</time>
      </trkpt>
      <trkpt lat="43.77186" lon="4.26072">
        <ele>68.41</ele>
        <time>2023-08-06T08:15:59.994Z</time>
      </trkpt>
      <trkpt lat="43.7717" lon="4.26071">
        <ele>68.37</ele>
        <time>2023-08-06T08:16:10.240Z</time>
      </trkpt>
      <trkpt lat="43.77167" lon="4.26059">
        <ele>68.07</ele>
        <time>2023-08-06T08:16:20.378Z</time>
      </trkpt>
      <trkpt lat="43.77167" lon="4.26041">
        <ele>69.67</ele>
        <time>2023-08-06T08:16:30.515Z</time>
      </trkpt>
      <trkpt lat="43.77175" lon="4.2603">
        <ele>70.15</ele>
        <time>2023-08-06T08:16:40.654Z</time>
      </trkpt>
      <trkpt lat="43.77171" lon="4.26024">
        <ele>68.88</ele>
        <time>2023-08-06T08:16:50.792Z</time>
      </trkpt>
      <trkpt lat="43.77167" lon="4.26011">
        <ele>68.88</ele>
        <time>2023-08-06T08:17:01.019Z</time>
      </trkpt>
      <trkpt lat="43.77171" lon="4.25999">
        <ele>68.86</ele>
        <time>2023-08-06T08:17:11.175Z</time>
      </trkpt>
      <trkpt lat="43.77161" lon="4.2599">
        <ele>67.8</ele>
        <time>2023-08-06T08:17:21.441Z</time>
      </trkpt>
      <trkpt lat="43.7716" lon="4.25971">
        <ele>67.52</ele>
        <time>2023-08-06T08:17:31.580Z</time>
      </trkpt>
      <trkpt lat="43.7714" lon="4.25979">
        <ele>68.47</ele>
        <time>2023-08-06T08:17:41.720Z</time>
      </trkpt>
      <trkpt lat="43.77129" lon="4.25998">
        <ele>69.89</ele>
        <time>2023-08-06T08:17:51.858Z</time>
      </trkpt>
      <trkpt lat="43.77122" lon="4.2601">
        <ele>67.72</ele>
        <time>2023-08-06T08:18:01.997Z</time>
      </trkpt>
      <trkpt lat="43.77116" lon="4.26015">
        <ele>66.63</ele>
        <time>2023-08-06T08:18:12.137Z</time>
      </trkpt>
      <trkpt lat="43.77107" lon="4.2602">
        <ele>65.08</ele>
        <time>2023-08-06T08:18:22.277Z</time>
      </trkpt>
      <trkpt lat="43.77099" lon="4.26027">
        <ele>64.02</ele>
        <time>2023-08-06T08:18:32.415Z</time>
      </trkpt>
      <trkpt lat="43.7709" lon="4.26036">
        <ele>62</ele>
        <time>2023-08-06T08:18:42.555Z</time>
      </trkpt>
      <trkpt lat="43.77077" lon="4.26042">
        <ele>62.16</ele>
        <time>2023-08-06T08:18:52.693Z</time>
      </trkpt>
      <trkpt lat="43.77066" lon="4.26044">
        <ele>60.86</ele>
        <time>2023-08-06T08:19:02.833Z</time>
      </trkpt>
      <trkpt lat="43.77061" lon="4.26056">
        <ele>59.32</ele>
        <time>2023-08-06T08:19:12.972Z</time>
      </trkpt>
      <trkpt lat="43.77059" lon="4.26057">
        <ele>59.46</ele>
        <time>2023-08-06T08:19:23.110Z</time>
      </trkpt>
      <trkpt lat="43.7704" lon="4.26072">
        <ele>57.6</ele>
        <time>2023-08-06T08:19:33.249Z</time>
      </trkpt>
      <trkpt lat="43.77029" lon="4.26077">
        <ele>58.51</ele>
        <time>2023-08-06T08:19:43.388Z</time>
      </trkpt>
      <trkpt lat="43.7702" lon="4.26085">
        <ele>57.99</ele>
        <time>2023-08-06T08:19:53.526Z</time>
      </trkpt>
      <trkpt lat="43.77013" lon="4.26094">
        <ele>55.23</ele>
        <time>2023-08-06T08:20:03.665Z</time>
      </trkpt>
      <trkpt lat="43.77004" lon="4.26107">
        <ele>55.42</ele>
        <time>2023-08-06T08:20:13.805Z</time>
      </trkpt>
      <trkpt lat="43.76995" lon="4.26114">
        <ele>54.9</ele>
        <time>2023-08-06T08:20:23.942Z</time>
      </trkpt>
      <trkpt lat="43.76987" lon="4.2612">
        <ele>54.87</ele>
        <time>2023-08-06T08:20:34.081Z</time>
      </trkpt>
      <trkpt lat="43.76983" lon="4.26132">
        <ele>54.02</ele>
        <time>2023-08-06T08:20:44.221Z</time>
      </trkpt>
      <trkpt lat="43.76975" lon="4.26141">
        <ele>53.3</ele>
        <time>2023-08-06T08:20:54.358Z</time>
      </trkpt>
      <trkpt lat="43.76968" lon="4.26128">
        <ele>54.14</ele>
        <time>2023-08-06T08:21:04.480Z</time>
      </trkpt>
      <trkpt lat="43.76962" lon="4.26117">
        <ele>54.93</ele>
        <time>2023-08-06T08:21:14.636Z</time>
      </trkpt>
      <trkpt lat="43.76962" lon="4.26113">
        <ele>55.97</ele>
        <time>2023-08-06T08:21:24.774Z</time>
      </trkpt>
      <trkpt lat="43.7696" lon="4.26111">
        <ele>56.14</ele>
        <time>2023-08-06T08:21:34.914Z</time>
      </trkpt>
      <trkpt lat="43.76957" lon="4.26108">
        <ele>57.39</ele>
        <time>2023-08-06T08:21:45.051Z</time>
      </trkpt>
      <trkpt lat="43.76945" lon="4.26108">
        <ele>57.51</ele>
        <time>2023-08-06T08:21:55.724Z</time>
      </trkpt>
      <trkpt lat="43.76927" lon="4.2612">
        <ele>58.5</ele>
        <time>2023-08-06T08:22:05.969Z</time>
      </trkpt>
      <trkpt lat="43.76918" lon="4.26128">
        <ele>57.46</ele>
        <time>2023-08-06T08:22:16.108Z</time>
      </trkpt>
      <trkpt lat="43.76905" lon="4.26122">
        <ele>58.7</ele>
        <time>2023-08-06T08:22:26.781Z</time>
      </trkpt>
      <trkpt lat="43.76895" lon="4.26123">
        <ele>60.68</ele>
        <time>2023-08-06T08:22:36.919Z</time>
      </trkpt>
      <trkpt lat="43.76886" lon="4.26116">
        <ele>60.89</ele>
        <time>2023-08-06T08:22:47.057Z</time>
      </trkpt>
      <trkpt lat="43.76875" lon="4.26115">
        <ele>62.85</ele>
        <time>2023-08-06T08:22:57.196Z</time>
      </trkpt>
      <trkpt lat="43.76867" lon="4.2611">
        <ele>63.22</ele>
        <time>2023-08-06T08:23:07.334Z</time>
      </trkpt>
      <trkpt lat="43.76856" lon="4.26115">
        <ele>61.87</ele>
        <time>2023-08-06T08:23:17.472Z</time>
      </trkpt>
      <trkpt lat="43.76848" lon="4.26125">
        <ele>63.68</ele>
        <time>2023-08-06T08:23:27.611Z</time>
      </trkpt>
      <trkpt lat="43.76847" lon="4.26129">
        <ele>61.63</ele>
        <time>2023-08-06T08:23:37.750Z</time>
      </trkpt>
      <trkpt lat="43.76841" lon="4.26134">
        <ele>61.74</ele>
        <time>2023-08-06T08:23:47.888Z</time>
      </trkpt>
      <trkpt lat="43.76831" lon="4.26139">
        <ele>62.62</ele>
        <time>2023-08-06T08:23:57.998Z</time>
      </trkpt>
      <trkpt lat="43.76823" lon="4.26139">
        <ele>61.13</ele>
        <time>2023-08-06T08:24:08.167Z</time>
      </trkpt>
      <trkpt lat="43.76818" lon="4.26127">
        <ele>62.18</ele>
        <time>2023-08-06T08:24:18.304Z</time>
      </trkpt>
      <trkpt lat="43.76808" lon="4.26124">
        <ele>63.18</ele>
        <time>2023-08-06T08:24:28.443Z</time>
      </trkpt>
      <trkpt lat="43.76798" lon="4.26123">
        <ele>63.33</ele>
        <time>2023-08-06T08:24:38.583Z</time>
      </trkpt>
      <trkpt lat="43.76789" lon="4.26126">
        <ele>62.86</ele>
        <time>2023-08-06T08:24:48.720Z</time>
      </trkpt>
      <trkpt lat="43.76781" lon="4.2613">
        <ele>63.02</ele>
        <time>2023-08-06T08:24:58.860Z</time>
      </trkpt>
      <trkpt lat="43.76771" lon="4.26134">
        <ele>62.43</ele>
        <time>2023-08-06T08:25:08.998Z</time>
      </trkpt>
      <trkpt lat="43.7676" lon="4.26139">
        <ele>62.59</ele>
        <time>2023-08-06T08:25:19.137Z</time>
      </trkpt>
      <trkpt lat="43.76751" lon="4.26135">
        <ele>62.25</ele>
        <time>2023-08-06T08:25:29.276Z</time>
      </trkpt>
      <trkpt lat="43.76743" lon="4.26129">
        <ele>62.26</ele>
        <time>2023-08-06T08:25:39.415Z</time>
      </trkpt>
      <trkpt lat="43.76737" lon="4.26115">
        <ele>63.1</ele>
        <time>2023-08-06T08:25:49.553Z</time>
      </trkpt>
      <trkpt lat="43.76731" lon="4.26104">
        <ele>64.52</ele>
        <time>2023-08-06T08:25:59.692Z</time>
      </trkpt>
      <trkpt lat="43.7672" lon="4.26102">
        <ele>64.81</ele>
        <time>2023-08-06T08:26:09.831Z</time>
      </trkpt>
      <trkpt lat="43.76713" lon="4.26091">
        <ele>65.34</ele>
        <time>2023-08-06T08:26:19.969Z</time>
      </trkpt>
      <trkpt lat="43.76704" lon="4.26082">
        <ele>67.33</ele>
        <time>2023-08-06T08:26:30.109Z</time>
      </trkpt>
      <trkpt lat="43.76697" lon="4.26072">
        <ele>65.9</ele>
        <time>2023-08-06T08:26:40.247Z</time>
      </trkpt>
      <trkpt lat="43.76689" lon="4.26067">
        <ele>66.25</ele>
        <time>2023-08-06T08:26:50.386Z</time>
      </trkpt>
      <trkpt lat="43.76682" lon="4.26057">
        <ele>69.36</ele>
        <time>2023-08-06T08:27:00.481Z</time>
      </trkpt>
      <trkpt lat="43.76671" lon="4.26053">
        <ele>67.79</ele>
        <time>2023-08-06T08:27:10.663Z</time>
      </trkpt>
      <trkpt lat="43.76663" lon="4.26046">
        <ele>69.18</ele>
        <time>2023-08-06T08:27:20.800Z</time>
      </trkpt>
      <trkpt lat="43.76671" lon="4.26031">
        <ele>70.38</ele>
        <time>2023-08-06T08:27:30.940Z</time>
      </trkpt>
      <trkpt lat="43.76675" lon="4.26017">
        <ele>68.81</ele>
        <time>2023-08-06T08:27:41.080Z</time>
      </trkpt>
      <trkpt lat="43.76681" lon="4.26003">
        <ele>68.71</ele>
        <time>2023-08-06T08:27:51.751Z</time>
      </trkpt>
      <trkpt lat="43.76689" lon="4.25992">
        <ele>68.55</ele>
        <time>2023-08-06T08:28:01.890Z</time>
      </trkpt>
      <trkpt lat="43.76679" lon="4.25988">
        <ele>69.33</ele>
        <time>2023-08-06T08:28:12.029Z</time>
      </trkpt>
      <trkpt lat="43.76675" lon="4.25974">
        <ele>68.87</ele>
        <time>2023-08-06T08:28:22.167Z</time>
      </trkpt>
      <trkpt lat="43.76669" lon="4.25971">
        <ele>67.65</ele>
        <time>2023-08-06T08:28:32.307Z</time>
      </trkpt>
      <trkpt lat="43.76661" lon="4.25982">
        <ele>69.85</ele>
        <time>2023-08-06T08:28:42.446Z</time>
      </trkpt>
      <trkpt lat="43.76651" lon="4.25991">
        <ele>70.78</ele>
        <time>2023-08-06T08:28:52.584Z</time>
      </trkpt>
      <trkpt lat="43.76642" lon="4.26">
        <ele>70.51</ele>
        <time>2023-08-06T08:29:02.722Z</time>
      </trkpt>
      <trkpt lat="43.76632" lon="4.26011">
        <ele>70.82</ele>
        <time>2023-08-06T08:29:12.861Z</time>
      </trkpt>
      <trkpt lat="43.76626" lon="4.26021">
        <ele>72.82</ele>
        <time>2023-08-06T08:29:23.107Z</time>
      </trkpt>
      <trkpt lat="43.76616" lon="4.26031">
        <ele>72.07</ele>
        <time>2023-08-06T08:29:33.778Z</time>
      </trkpt>
      <trkpt lat="43.76606" lon="4.2604">
        <ele>74.48</ele>
        <time>2023-08-06T08:29:43.917Z</time>
      </trkpt>
      <trkpt lat="43.76597" lon="4.26052">
        <ele>72.81</ele>
        <time>2023-08-06T08:29:54.056Z</time>
      </trkpt>
      <trkpt lat="43.76589" lon="4.26061">
        <ele>70.91</ele>
        <time>2023-08-06T08:30:04.195Z</time>
      </trkpt>
      <trkpt lat="43.76584" lon="4.26069">
        <ele>73.58</ele>
        <time>2023-08-06T08:30:14.869Z</time>
      </trkpt>
      <trkpt lat="43.76585" lon="4.26067">
        <ele>72.19</ele>
        <time>2023-08-06T08:30:29.024Z</time>
      </trkpt>
      <trkpt lat="43.76586" lon="4.26067">
        <ele>70.53</ele>
        <time>2023-08-06T08:30:39.025Z</time>
      </trkpt>
      <trkpt lat="43.76585" lon="4.26067">
        <ele>71.56</ele>
        <time>2023-08-06T08:31:03.025Z</time>
      </trkpt>
      <trkpt lat="43.76584" lon="4.26066">
        <ele>72.2</ele>
        <time>2023-08-06T08:31:17.026Z</time>
      </trkpt>
      <trkpt lat="43.76583" lon="4.26067">
        <ele>70.75</ele>
        <time>2023-08-06T08:31:39.027Z</time>
      </trkpt>
      <trkpt lat="43.76583" lon="4.26068">
        <ele>72.26</ele>
        <time>2023-08-06T08:31:49.075Z</time>
      </trkpt>
      <trkpt lat="43.76583" lon="4.26066">
        <ele>73.03</ele>
        <time>2023-08-06T08:31:59.747Z</time>
      </trkpt>
      <trkpt lat="43.76581" lon="4.26055">
        <ele>71.96</ele>
        <time>2023-08-06T08:32:09.887Z</time>
      </trkpt>
      <trkpt lat="43.76582" lon="4.26055">
        <ele>72.92</ele>
        <time>2023-08-06T08:32:24.830Z</time>
      </trkpt>
      <trkpt lat="43.76582" lon="4.26054">
        <ele>73.29</ele>
        <time>2023-08-06T08:32:43.507Z</time>
      </trkpt>
      <trkpt lat="43.76576" lon="4.26043">
        <ele>72.86</ele>
        <time>2023-08-06T08:32:53.645Z</time>
      </trkpt>
      <trkpt lat="43.76571" lon="4.26039">
        <ele>72.52</ele>
        <time>2023-08-06T08:33:03.784Z</time>
      </trkpt>
      <trkpt lat="43.76568" lon="4.26036">
        <ele>73.22</ele>
        <time>2023-08-06T08:33:13.924Z</time>
      </trkpt>
      <trkpt lat="43.76563" lon="4.26031">
        <ele>71.88</ele>
        <time>2023-08-06T08:33:24.062Z</time>
      </trkpt>
      <trkpt lat="43.76558" lon="4.26024">
        <ele>72.35</ele>
        <time>2023-08-06T08:33:34.201Z</time>
      </trkpt>
      <trkpt lat="43.76532" lon="4.25999">
        <ele>71.01</ele>
        <time>2023-08-06T08:33:44.340Z</time>
      </trkpt>
      <trkpt lat="43.76534" lon="4.2598">
        <ele>69.16</ele>
        <time>2023-08-06T08:33:54.488Z</time>
      </trkpt>
      <trkpt lat="43.76522" lon="4.25979">
        <ele>68.65</ele>
        <time>2023-08-06T08:34:04.626Z</time>
      </trkpt>
      <trkpt lat="43.76509" lon="4.2598">
        <ele>68.45</ele>
        <time>2023-08-06T08:34:14.765Z</time>
      </trkpt>
      <trkpt lat="43.76505" lon="4.25994">
        <ele>72.18</ele>
        <time>2023-08-06T08:34:24.904Z</time>
      </trkpt>
      <trkpt lat="43.765" lon="4.25995">
        <ele>69.12</ele>
        <time>2023-08-06T08:34:35.043Z</time>
      </trkpt>
      <trkpt lat="43.76489" lon="4.25995">
        <ele>67.58</ele>
        <time>2023-08-06T08:34:45.182Z</time>
      </trkpt>
      <trkpt lat="43.76486" lon="4.26012">
        <ele>67.56</ele>
        <time>2023-08-06T08:34:55.321Z</time>
      </trkpt>
      <trkpt lat="43.76485" lon="4.26026">
        <ele>67.72</ele>
        <time>2023-08-06T08:35:05.567Z</time>
      </trkpt>
      <trkpt lat="43.76471" lon="4.26037">
        <ele>65.06</ele>
        <time>2023-08-06T08:35:15.705Z</time>
      </trkpt>
      <trkpt lat="43.76462" lon="4.26038">
        <ele>65.15</ele>
        <time>2023-08-06T08:35:25.845Z</time>
      </trkpt>
      <trkpt lat="43.76451" lon="4.26031">
        <ele>64.4</ele>
        <time>2023-08-06T08:35:35.952Z</time>
      </trkpt>
      <trkpt lat="43.76451" lon="4.26014">
        <ele>64.51</ele>
        <time>2023-08-06T08:35:46.122Z</time>
      </trkpt>
      <trkpt lat="43.76443" lon="4.26006">
        <ele>62.85</ele>
        <time>2023-08-06T08:35:56.249Z</time>
      </trkpt>
      <trkpt lat="43.76435" lon="4.26021">
        <ele>62.71</ele>
        <time>2023-08-06T08:36:06.506Z</time>
      </trkpt>
      <trkpt lat="43.7643" lon="4.26029">
        <ele>61.9</ele>
        <time>2023-08-06T08:36:16.645Z</time>
      </trkpt>
      <trkpt lat="43.7643" lon="4.26023">
        <ele>61.49</ele>
        <time>2023-08-06T08:36:26.783Z</time>
      </trkpt>
      <trkpt lat="43.76427" lon="4.26023">
        <ele>60.55</ele>
        <time>2023-08-06T08:36:36.923Z</time>
      </trkpt>
      <trkpt lat="43.76407" lon="4.26021">
        <ele>58.84</ele>
        <time>2023-08-06T08:36:47.061Z</time>
      </trkpt>
      <trkpt lat="43.76404" lon="4.26025">
        <ele>59.11</ele>
        <time>2023-08-06T08:36:57.200Z</time>
      </trkpt>
      <trkpt lat="43.7641" lon="4.2604">
        <ele>59.09</ele>
        <time>2023-08-06T08:37:07.338Z</time>
      </trkpt>
      <trkpt lat="43.76416" lon="4.26051">
        <ele>59.88</ele>
        <time>2023-08-06T08:37:17.477Z</time>
      </trkpt>
      <trkpt lat="43.76423" lon="4.26061">
        <ele>58.85</ele>
        <time>2023-08-06T08:37:28.150Z</time>
      </trkpt>
      <trkpt lat="43.76435" lon="4.26073">
        <ele>58.12</ele>
        <time>2023-08-06T08:37:38.396Z</time>
      </trkpt>
      <trkpt lat="43.76433" lon="4.2609">
        <ele>57.49</ele>
        <time>2023-08-06T08:37:48.533Z</time>
      </trkpt>
      <trkpt lat="43.76444" lon="4.26099">
        <ele>58.55</ele>
        <time>2023-08-06T08:37:58.672Z</time>
      </trkpt>
      <trkpt lat="43.76455" lon="4.261">
        <ele>60.14</ele>
        <time>2023-08-06T08:38:08.812Z</time>
      </trkpt>
      <trkpt lat="43.76463" lon="4.26097">
        <ele>60.53</ele>
        <time>2023-08-06T08:38:18.950Z</time>
      </trkpt>
      <trkpt lat="43.76467" lon="4.26083">
        <ele>62.81</ele>
        <time>2023-08-06T08:38:29.089Z</time>
      </trkpt>
      <trkpt lat="43.76469" lon="4.2607">
        <ele>62.31</ele>
        <time>2023-08-06T08:38:39.228Z</time>
      </trkpt>
      <trkpt lat="43.7648" lon="4.26074">
        <ele>64.06</ele>
        <time>2023-08-06T08:38:49.366Z</time>
      </trkpt>
      <trkpt lat="43.76484" lon="4.2609">
        <ele>63.12</ele>
        <time>2023-08-06T08:39:00.038Z</time>
      </trkpt>
      <trkpt lat="43.76492" lon="4.26099">
        <ele>62.84</ele>
        <time>2023-08-06T08:39:10.178Z</time>
      </trkpt>
      <trkpt lat="43.765" lon="4.26108">
        <ele>62.81</ele>
        <time>2023-08-06T08:39:20.316Z</time>
      </trkpt>
      <trkpt lat="43.76505" lon="4.26121">
        <ele>62.31</ele>
        <time>2023-08-06T08:39:30.455Z</time>
      </trkpt>
      <trkpt lat="43.76498" lon="4.26124">
        <ele>61.06</ele>
        <time>2023-08-06T08:39:40.700Z</time>
      </trkpt>
      <trkpt lat="43.76491" lon="4.26115">
        <ele>61.42</ele>
        <time>2023-08-06T08:39:50.838Z</time>
      </trkpt>
      <trkpt lat="43.76488" lon="4.26102">
        <ele>62.1</ele>
        <time>2023-08-06T08:40:00.951Z</time>
      </trkpt>
      <trkpt lat="43.76485" lon="4.26103">
        <ele>60.34</ele>
        <time>2023-08-06T08:40:11.116Z</time>
      </trkpt>
      <trkpt lat="43.7648" lon="4.26106">
        <ele>59.36</ele>
        <time>2023-08-06T08:40:21.255Z</time>
      </trkpt>
      <trkpt lat="43.7647" lon="4.26122">
        <ele>58.12</ele>
        <time>2023-08-06T08:40:31.501Z</time>
      </trkpt>
      <trkpt lat="43.76459" lon="4.26138">
        <ele>57.52</ele>
        <time>2023-08-06T08:40:41.639Z</time>
      </trkpt>
      <trkpt lat="43.76453" lon="4.26144">
        <ele>56.58</ele>
        <time>2023-08-06T08:40:51.777Z</time>
      </trkpt>
      <trkpt lat="43.76454" lon="4.2616">
        <ele>56.49</ele>
        <time>2023-08-06T08:41:01.906Z</time>
      </trkpt>
      <trkpt lat="43.76456" lon="4.26176">
        <ele>56.88</ele>
        <time>2023-08-06T08:41:12.055Z</time>
      </trkpt>
      <trkpt lat="43.76451" lon="4.26193">
        <ele>56.22</ele>
        <time>2023-08-06T08:41:22.194Z</time>
      </trkpt>
      <trkpt lat="43.76439" lon="4.26193">
        <ele>58.01</ele>
        <time>2023-08-06T08:41:32.439Z</time>
      </trkpt>
      <trkpt lat="43.76431" lon="4.26183">
        <ele>56.02</ele>
        <time>2023-08-06T08:41:42.578Z</time>
      </trkpt>
      <trkpt lat="43.76422" lon="4.26175">
        <ele>56.18</ele>
        <time>2023-08-06T08:41:52.717Z</time>
      </trkpt>
      <trkpt lat="43.76417" lon="4.26165">
        <ele>55.07</ele>
        <time>2023-08-06T08:42:02.855Z</time>
      </trkpt>
      <trkpt lat="43.76406" lon="4.2617">
        <ele>53.66</ele>
        <time>2023-08-06T08:42:12.952Z</time>
      </trkpt>
      <trkpt lat="43.76393" lon="4.26171">
        <ele>54.31</ele>
        <time>2023-08-06T08:42:23.122Z</time>
      </trkpt>
      <trkpt lat="43.76382" lon="4.26171">
        <ele>54.69</ele>
        <time>2023-08-06T08:42:33.272Z</time>
      </trkpt>
      <trkpt lat="43.76373" lon="4.2618">
        <ele>53.88</ele>
        <time>2023-08-06T08:42:43.944Z</time>
      </trkpt>
      <trkpt lat="43.7636" lon="4.26182">
        <ele>55.16</ele>
        <time>2023-08-06T08:42:54.082Z</time>
      </trkpt>
      <trkpt lat="43.76353" lon="4.26194">
        <ele>55.2</ele>
        <time>2023-08-06T08:43:04.755Z</time>
      </trkpt>
      <trkpt lat="43.76348" lon="4.26208">
        <ele>56.17</ele>
        <time>2023-08-06T08:43:14.894Z</time>
      </trkpt>
      <trkpt lat="43.76338" lon="4.26215">
        <ele>56.64</ele>
        <time>2023-08-06T08:43:25.032Z</time>
      </trkpt>
      <trkpt lat="43.76326" lon="4.26215">
        <ele>54.49</ele>
        <time>2023-08-06T08:43:35.172Z</time>
      </trkpt>
      <trkpt lat="43.76332" lon="4.26216">
        <ele>56.41</ele>
        <time>2023-08-06T08:43:45.309Z</time>
      </trkpt>
      <trkpt lat="43.76346" lon="4.26214">
        <ele>55.64</ele>
        <time>2023-08-06T08:43:55.449Z</time>
      </trkpt>
      <trkpt lat="43.76359" lon="4.26216">
        <ele>58.27</ele>
        <time>2023-08-06T08:44:05.587Z</time>
      </trkpt>
      <trkpt lat="43.76371" lon="4.2622">
        <ele>56.57</ele>
        <time>2023-08-06T08:44:15.727Z</time>
      </trkpt>
      <trkpt lat="43.76382" lon="4.26229">
        <ele>59.97</ele>
        <time>2023-08-06T08:44:25.866Z</time>
      </trkpt>
      <trkpt lat="43.76391" lon="4.26236">
        <ele>58.89</ele>
        <time>2023-08-06T08:44:36.005Z</time>
      </trkpt>
      <trkpt lat="43.764" lon="4.26246">
        <ele>56.32</ele>
        <time>2023-08-06T08:44:46.144Z</time>
      </trkpt>
      <trkpt lat="43.76413" lon="4.26256">
        <ele>60.55</ele>
        <time>2023-08-06T08:44:56.283Z</time>
      </trkpt>
      <trkpt lat="43.76423" lon="4.26269">
        <ele>59.17</ele>
        <time>2023-08-06T08:45:06.428Z</time>
      </trkpt>
      <trkpt lat="43.76434" lon="4.26273">
        <ele>60.27</ele>
        <time>2023-08-06T08:45:16.559Z</time>
      </trkpt>
      <trkpt lat="43.76446" lon="4.26268">
        <ele>59.33</ele>
        <time>2023-08-06T08:45:26.698Z</time>
      </trkpt>
      <trkpt lat="43.76458" lon="4.26263">
        <ele>57.53</ele>
        <time>2023-08-06T08:45:36.837Z</time>
      </trkpt>
      <trkpt lat="43.76469" lon="4.26258">
        <ele>57.47</ele>
        <time>2023-08-06T08:45:46.951Z</time>
      </trkpt>
      <trkpt lat="43.76478" lon="4.2626">
        <ele>57.48</ele>
        <time>2023-08-06T08:45:57.115Z</time>
      </trkpt>
      <trkpt lat="43.76495" lon="4.26253">
        <ele>54.57</ele>
        <time>2023-08-06T08:46:07.254Z</time>
      </trkpt>
      <trkpt lat="43.76506" lon="4.26247">
        <ele>55.61</ele>
        <time>2023-08-06T08:46:17.927Z</time>
      </trkpt>
      <trkpt lat="43.76518" lon="4.26244">
        <ele>56.48</ele>
        <time>2023-08-06T08:46:28.064Z</time>
      </trkpt>
      <trkpt lat="43.7653" lon="4.26243">
        <ele>56.14</ele>
        <time>2023-08-06T08:46:38.727Z</time>
      </trkpt>
      <trkpt lat="43.76543" lon="4.26244">
        <ele>56.59</ele>
        <time>2023-08-06T08:46:48.885Z</time>
      </trkpt>
      <trkpt lat="43.76557" lon="4.26248">
        <ele>55.81</ele>
        <time>2023-08-06T08:46:59.024Z</time>
      </trkpt>
      <trkpt lat="43.7657" lon="4.2625">
        <ele>54.93</ele>
        <time>2023-08-06T08:47:09.163Z</time>
      </trkpt>
      <trkpt lat="43.76581" lon="4.26258">
        <ele>55.05</ele>
        <time>2023-08-06T08:47:19.302Z</time>
      </trkpt>
      <trkpt lat="43.76585" lon="4.26274">
        <ele>54.63</ele>
        <time>2023-08-06T08:47:29.441Z</time>
      </trkpt>
      <trkpt lat="43.76591" lon="4.26291">
        <ele>52.44</ele>
        <time>2023-08-06T08:47:39.580Z</time>
      </trkpt>
      <trkpt lat="43.76595" lon="4.26306">
        <ele>52.44</ele>
        <time>2023-08-06T08:47:49.719Z</time>
      </trkpt>
      <trkpt lat="43.766" lon="4.26318">
        <ele>53.67</ele>
        <time>2023-08-06T08:47:59.859Z</time>
      </trkpt>
      <trkpt lat="43.76608" lon="4.26332">
        <ele>52.99</ele>
        <time>2023-08-06T08:48:09.997Z</time>
      </trkpt>
      <trkpt lat="43.7662" lon="4.26339">
        <ele>54.89</ele>
        <time>2023-08-06T08:48:20.125Z</time>
      </trkpt>
      <trkpt lat="43.76629" lon="4.26347">
        <ele>54.94</ele>
        <time>2023-08-06T08:48:30.276Z</time>
      </trkpt>
      <trkpt lat="43.76628" lon="4.26368">
        <ele>54.5</ele>
        <time>2023-08-06T08:48:40.414Z</time>
      </trkpt>
      <trkpt lat="43.76626" lon="4.26384">
        <ele>56.16</ele>
        <time>2023-08-06T08:48:50.554Z</time>
      </trkpt>
      <trkpt lat="43.76627" lon="4.26399">
        <ele>56.01</ele>
        <time>2023-08-06T08:49:00.693Z</time>
      </trkpt>
      <trkpt lat="43.7663" lon="4.26414">
        <ele>56.65</ele>
        <time>2023-08-06T08:49:10.833Z</time>
      </trkpt>
      <trkpt lat="43.76633" lon="4.26431">
        <ele>56.9</ele>
        <time>2023-08-06T08:49:20.951Z</time>
      </trkpt>
      <trkpt lat="43.76642" lon="4.26444">
        <ele>58.09</ele>
        <time>2023-08-06T08:49:31.112Z</time>
      </trkpt>
      <trkpt lat="43.76651" lon="4.26452">
        <ele>58.41</ele>
        <time>2023-08-06T08:49:41.251Z</time>
      </trkpt>
      <trkpt lat="43.76661" lon="4.26457">
        <ele>59.11</ele>
        <time>2023-08-06T08:49:51.391Z</time>
      </trkpt>
      <trkpt lat="43.76673" lon="4.2646">
        <ele>60.51</ele>
        <time>2023-08-06T08:50:01.530Z</time>
      </trkpt>
      <trkpt lat="43.76684" lon="4.26462">
        <ele>59.83</ele>
        <time>2023-08-06T08:50:11.668Z</time>
      </trkpt>
      <trkpt lat="43.76696" lon="4.26452">
        <ele>61.29</ele>
        <time>2023-08-06T08:50:21.808Z</time>
      </trkpt>
      <trkpt lat="43.76707" lon="4.26453">
        <ele>62.16</ele>
        <time>2023-08-06T08:50:31.948Z</time>
      </trkpt>
      <trkpt lat="43.7672" lon="4.26458">
        <ele>62.06</ele>
        <time>2023-08-06T08:50:42.088Z</time>
      </trkpt>
      <trkpt lat="43.76729" lon="4.26449">
        <ele>62.32</ele>
        <time>2023-08-06T08:50:52.226Z</time>
      </trkpt>
      <trkpt lat="43.76739" lon="4.26443">
        <ele>65.07</ele>
        <time>2023-08-06T08:51:02.366Z</time>
      </trkpt>
      <trkpt lat="43.76751" lon="4.26441">
        <ele>63.96</ele>
        <time>2023-08-06T08:51:12.506Z</time>
      </trkpt>
      <trkpt lat="43.76761" lon="4.26436">
        <ele>64.39</ele>
        <time>2023-08-06T08:51:22.644Z</time>
      </trkpt>
      <trkpt lat="43.76775" lon="4.26435">
        <ele>64.27</ele>
        <time>2023-08-06T08:51:32.784Z</time>
      </trkpt>
      <trkpt lat="43.76788" lon="4.26434">
        <ele>63.48</ele>
        <time>2023-08-06T08:51:42.923Z</time>
      </trkpt>
      <trkpt lat="43.76799" lon="4.26433">
        <ele>62.56</ele>
        <time>2023-08-06T08:51:53.063Z</time>
      </trkpt>
      <trkpt lat="43.76809" lon="4.26426">
        <ele>60.78</ele>
        <time>2023-08-06T08:52:03.309Z</time>
      </trkpt>
      <trkpt lat="43.7682" lon="4.26419">
        <ele>60.07</ele>
        <time>2023-08-06T08:52:13.448Z</time>
      </trkpt>
      <trkpt lat="43.76828" lon="4.26414">
        <ele>57.4</ele>
        <time>2023-08-06T08:52:23.588Z</time>
      </trkpt>
      <trkpt lat="43.76836" lon="4.26395">
        <ele>57.8</ele>
        <time>2023-08-06T08:52:33.727Z</time>
      </trkpt>
      <trkpt lat="43.76836" lon="4.26379">
        <ele>57.08</ele>
        <time>2023-08-06T08:52:43.867Z</time>
      </trkpt>
      <trkpt lat="43.76847" lon="4.26385">
        <ele>55.14</ele>
        <time>2023-08-06T08:52:54.005Z</time>
      </trkpt>
      <trkpt lat="43.76856" lon="4.26394">
        <ele>53.99</ele>
        <time>2023-08-06T08:53:04.144Z</time>
      </trkpt>
      <trkpt lat="43.76864" lon="4.26404">
        <ele>53.14</ele>
        <time>2023-08-06T08:53:14.284Z</time>
      </trkpt>
      <trkpt lat="43.76876" lon="4.26414">
        <ele>53.7</ele>
        <time>2023-08-06T08:53:24.423Z</time>
      </trkpt>
      <trkpt lat="43.76888" lon="4.26423">
        <ele>51.37</ele>
        <time>2023-08-06T08:53:34.563Z</time>
      </trkpt>
      <trkpt lat="43.76888" lon="4.26441">
        <ele>51.47</ele>
        <time>2023-08-06T08:53:44.701Z</time>
      </trkpt>
      <trkpt lat="43.76892" lon="4.26458">
        <ele>52.51</ele>
        <time>2023-08-06T08:53:54.840Z</time>
      </trkpt>
      <trkpt lat="43.769" lon="4.2647">
        <ele>51.71</ele>
        <time>2023-08-06T08:54:04.951Z</time>
      </trkpt>
      <trkpt lat="43.76909" lon="4.26481">
        <ele>50.75</ele>
        <time>2023-08-06T08:54:15.118Z</time>
      </trkpt>
      <trkpt lat="43.76916" lon="4.26495">
        <ele>50.03</ele>
        <time>2023-08-06T08:54:25.258Z</time>
      </trkpt>
      <trkpt lat="43.76915" lon="4.26513">
        <ele>47.77</ele>
        <time>2023-08-06T08:54:35.398Z</time>
      </trkpt>
      <trkpt lat="43.76911" lon="4.26528">
        <ele>47.84</ele>
        <time>2023-08-06T08:54:45.537Z</time>
      </trkpt>
      <trkpt lat="43.76917" lon="4.26543">
        <ele>44.93</ele>
        <time>2023-08-06T08:54:56.208Z</time>
      </trkpt>
      <trkpt lat="43.76918" lon="4.26558">
        <ele>47.07</ele>
        <time>2023-08-06T08:55:06.349Z</time>
      </trkpt>
      <trkpt lat="43.76921" lon="4.26569">
        <ele>42.13</ele>
        <time>2023-08-06T08:55:17.021Z</time>
      </trkpt>
      <trkpt lat="43.76931" lon="4.2658">
        <ele>39.97</ele>
        <time>2023-08-06T08:55:27.161Z</time>
      </trkpt>
      <trkpt lat="43.76944" lon="4.26584">
        <ele>38.52</ele>
        <time>2023-08-06T08:55:37.301Z</time>
      </trkpt>
      <trkpt lat="43.7695" lon="4.26594">
        <ele>41.8</ele>
        <time>2023-08-06T08:55:47.440Z</time>
      </trkpt>
      <trkpt lat="43.76945" lon="4.26615">
        <ele>37.21</ele>
        <time>2023-08-06T08:55:57.579Z</time>
      </trkpt>
      <trkpt lat="43.76944" lon="4.26632">
        <ele>41.52</ele>
        <time>2023-08-06T08:56:07.718Z</time>
      </trkpt>
      <trkpt lat="43.76945" lon="4.26649">
        <ele>41.98</ele>
        <time>2023-08-06T08:56:17.858Z</time>
      </trkpt>
      <trkpt lat="43.76942" lon="4.26668">
        <ele>41.63</ele>
        <time>2023-08-06T08:56:28.105Z</time>
      </trkpt>
      <trkpt lat="43.76945" lon="4.26675">
        <ele>40.79</ele>
        <time>2023-08-06T08:56:38.242Z</time>
      </trkpt>
      <trkpt lat="43.76946" lon="4.26668">
        <ele>40.77</ele>
        <time>2023-08-06T08:56:48.918Z</time>
      </trkpt>
      <trkpt lat="43.76943" lon="4.26686">
        <ele>40.24</ele>
        <time>2023-08-06T08:56:59.058Z</time>
      </trkpt>
      <trkpt lat="43.76942" lon="4.26705">
        <ele>39.97</ele>
        <time>2023-08-06T08:57:09.198Z</time>
      </trkpt>
      <trkpt lat="43.76941" lon="4.26724">
        <ele>41.08</ele>
        <time>2023-08-06T08:57:19.337Z</time>
      </trkpt>
      <trkpt lat="43.76946" lon="4.26739">
        <ele>40.82</ele>
        <time>2023-08-06T08:57:29.476Z</time>
      </trkpt>
      <trkpt lat="43.76959" lon="4.26737">
        <ele>41.47</ele>
        <time>2023-08-06T08:57:39.616Z</time>
      </trkpt>
      <trkpt lat="43.76971" lon="4.26737">
        <ele>42.04</ele>
        <time>2023-08-06T08:57:49.756Z</time>
      </trkpt>
      <trkpt lat="43.76984" lon="4.26735">
        <ele>42.44</ele>
        <time>2023-08-06T08:57:59.896Z</time>
      </trkpt>
      <trkpt lat="43.76995" lon="4.26734">
        <ele>41.55</ele>
        <time>2023-08-06T08:58:10.037Z</time>
      </trkpt>
      <trkpt lat="43.77006" lon="4.26733">
        <ele>43.53</ele>
        <time>2023-08-06T08:58:20.165Z</time>
      </trkpt>
      <trkpt lat="43.77018" lon="4.2673">
        <ele>44.85</ele>
        <time>2023-08-06T08:58:30.850Z</time>
      </trkpt>
      <trkpt lat="43.7703" lon="4.26729">
        <ele>47.03</ele>
        <time>2023-08-06T08:58:40.990Z</time>
      </trkpt>
      <trkpt lat="43.77042" lon="4.2673">
        <ele>47.19</ele>
        <time>2023-08-06T08:58:51.128Z</time>
      </trkpt>
      <trkpt lat="43.77053" lon="4.26717">
        <ele>47.56</ele>
        <time>2023-08-06T08:59:01.270Z</time>
      </trkpt>
      <trkpt lat="43.77064" lon="4.26714">
        <ele>48.8</ele>
        <time>2023-08-06T08:59:11.409Z</time>
      </trkpt>
      <trkpt lat="43.77075" lon="4.26714">
        <ele>48.58</ele>
        <time>2023-08-06T08:59:21.548Z</time>
      </trkpt>
      <trkpt lat="43.77086" lon="4.26715">
        <ele>51.64</ele>
        <time>2023-08-06T08:59:31.689Z</time>
      </trkpt>
      <trkpt lat="43.77098" lon="4.26713">
        <ele>52.94</ele>
        <time>2023-08-06T08:59:41.829Z</time>
      </trkpt>
      <trkpt lat="43.77109" lon="4.26709">
        <ele>56.5</ele>
        <time>2023-08-06T08:59:51.952Z</time>
      </trkpt>
      <trkpt lat="43.77119" lon="4.26709">
        <ele>55.24</ele>
        <time>2023-08-06T09:00:02.109Z</time>
      </trkpt>
      <trkpt lat="43.77131" lon="4.26711">
        <ele>55.42</ele>
        <time>2023-08-06T09:00:12.250Z</time>
      </trkpt>
      <trkpt lat="43.77142" lon="4.26708">
        <ele>57.54</ele>
        <time>2023-08-06T09:00:22.388Z</time>
      </trkpt>
      <trkpt lat="43.77151" lon="4.26708">
        <ele>58.38</ele>
        <time>2023-08-06T09:00:32.530Z</time>
      </trkpt>
      <trkpt lat="43.77156" lon="4.26713">
        <ele>58.95</ele>
        <time>2023-08-06T09:00:42.670Z</time>
      </trkpt>
      <trkpt lat="43.77156" lon="4.26712">
        <ele>56.06</ele>
        <time>2023-08-06T09:01:13.058Z</time>
      </trkpt>
      <trkpt lat="43.77155" lon="4.26711">
        <ele>59.98</ele>
        <time>2023-08-06T09:01:23.058Z</time>
      </trkpt>
      <trkpt lat="43.77154" lon="4.26711">
        <ele>58.43</ele>
        <time>2023-08-06T09:01:47.060Z</time>
      </trkpt>
      <trkpt lat="43.77154" lon="4.26712">
        <ele>57.98</ele>
        <time>2023-08-06T09:02:25.135Z</time>
      </trkpt>
      <trkpt lat="43.77169" lon="4.26712">
        <ele>60.76</ele>
        <time>2023-08-06T09:02:35.789Z</time>
      </trkpt>
      <trkpt lat="43.77179" lon="4.26713">
        <ele>63.58</ele>
        <time>2023-08-06T09:02:45.949Z</time>
      </trkpt>
      <trkpt lat="43.77188" lon="4.26714">
        <ele>65.48</ele>
        <time>2023-08-06T09:02:56.089Z</time>
      </trkpt>
      <trkpt lat="43.77199" lon="4.26719">
        <ele>62.51</ele>
        <time>2023-08-06T09:03:06.228Z</time>
      </trkpt>
      <trkpt lat="43.77207" lon="4.26733">
        <ele>66.05</ele>
        <time>2023-08-06T09:03:16.367Z</time>
      </trkpt>
      <trkpt lat="43.77213" lon="4.26745">
        <ele>65.44</ele>
        <time>2023-08-06T09:03:26.508Z</time>
      </trkpt>
      <trkpt lat="43.77221" lon="4.26733">
        <ele>66.4</ele>
        <time>2023-08-06T09:03:36.647Z</time>
      </trkpt>
      <trkpt lat="43.7723" lon="4.26723">
        <ele>69.86</ele>
        <time>2023-08-06T09:03:46.787Z</time>
      </trkpt>
      <trkpt lat="43.77237" lon="4.26715">
        <ele>69.63</ele>
        <time>2023-08-06T09:03:56.927Z</time>
      </trkpt>
      <trkpt lat="43.7725" lon="4.26717">
        <ele>70.59</ele>
        <time>2023-08-06T09:04:07.067Z</time>
      </trkpt>
      <trkpt lat="43.77261" lon="4.26708">
        <ele>70.95</ele>
        <time>2023-08-06T09:04:17.208Z</time>
      </trkpt>
      <trkpt lat="43.77272" lon="4.26702">
        <ele>69.47</ele>
        <time>2023-08-06T09:04:27.345Z</time>
      </trkpt>
      <trkpt lat="43.77282" lon="4.2669">
        <ele>71.3</ele>
        <time>2023-08-06T09:04:37.487Z</time>
      </trkpt>
      <trkpt lat="43.77292" lon="4.2669">
        <ele>70.24</ele>
        <time>2023-08-06T09:04:47.627Z</time>
      </trkpt>
      <trkpt lat="43.77289" lon="4.26706">
        <ele>70.73</ele>
        <time>2023-08-06T09:04:57.768Z</time>
      </trkpt>
      <trkpt lat="43.7729" lon="4.26723">
        <ele>68.91</ele>
        <time>2023-08-06T09:05:07.908Z</time>
      </trkpt>
      <trkpt lat="43.77284" lon="4.26735">
        <ele>69.04</ele>
        <time>2023-08-06T09:05:18.047Z</time>
      </trkpt>
      <trkpt lat="43.77286" lon="4.26749">
        <ele>68.9</ele>
        <time>2023-08-06T09:05:28.166Z</time>
      </trkpt>
      <trkpt lat="43.77291" lon="4.26763">
        <ele>67.22</ele>
        <time>2023-08-06T09:05:38.327Z</time>
      </trkpt>
      <trkpt lat="43.77284" lon="4.26775">
        <ele>66.98</ele>
        <time>2023-08-06T09:05:48.466Z</time>
      </trkpt>
      <trkpt lat="43.77279" lon="4.2679">
        <ele>65.36</ele>
        <time>2023-08-06T09:05:58.607Z</time>
      </trkpt>
      <trkpt lat="43.77268" lon="4.26794">
        <ele>64.8</ele>
        <time>2023-08-06T09:06:08.854Z</time>
      </trkpt>
      <trkpt lat="43.77259" lon="4.26804">
        <ele>63.03</ele>
        <time>2023-08-06T09:06:18.992Z</time>
      </trkpt>
      <trkpt lat="43.77252" lon="4.26812">
        <ele>63.29</ele>
        <time>2023-08-06T09:06:29.133Z</time>
      </trkpt>
      <trkpt lat="43.77243" lon="4.26816">
        <ele>63.76</ele>
        <time>2023-08-06T09:06:39.272Z</time>
      </trkpt>
      <trkpt lat="43.77243" lon="4.26831">
        <ele>61.18</ele>
        <time>2023-08-06T09:06:49.412Z</time>
      </trkpt>
      <trkpt lat="43.7723" lon="4.2683">
        <ele>62.32</ele>
        <time>2023-08-06T09:06:59.551Z</time>
      </trkpt>
      <trkpt lat="43.77222" lon="4.26821">
        <ele>61.66</ele>
        <time>2023-08-06T09:07:09.690Z</time>
      </trkpt>
      <trkpt lat="43.77214" lon="4.26823">
        <ele>61.72</ele>
        <time>2023-08-06T09:07:19.830Z</time>
      </trkpt>
      <trkpt lat="43.77202" lon="4.2682">
        <ele>60.28</ele>
        <time>2023-08-06T09:07:29.951Z</time>
      </trkpt>
      <trkpt lat="43.77194" lon="4.26827">
        <ele>59.05</ele>
        <time>2023-08-06T09:07:40.109Z</time>
      </trkpt>
      <trkpt lat="43.77189" lon="4.26835">
        <ele>58.08</ele>
        <time>2023-08-06T09:07:50.782Z</time>
      </trkpt>
      <trkpt lat="43.7718" lon="4.26838">
        <ele>56.62</ele>
        <time>2023-08-06T09:08:00.923Z</time>
      </trkpt>
      <trkpt lat="43.77172" lon="4.26837">
        <ele>55.63</ele>
        <time>2023-08-06T09:08:11.062Z</time>
      </trkpt>
      <trkpt lat="43.77163" lon="4.26831">
        <ele>55.46</ele>
        <time>2023-08-06T09:08:21.202Z</time>
      </trkpt>
      <trkpt lat="43.77154" lon="4.2683">
        <ele>53.43</ele>
        <time>2023-08-06T09:08:31.952Z</time>
      </trkpt>
      <trkpt lat="43.77146" lon="4.2683">
        <ele>53.2</ele>
        <time>2023-08-06T09:08:42.120Z</time>
      </trkpt>
      <trkpt lat="43.7714" lon="4.26831">
        <ele>52.29</ele>
        <time>2023-08-06T09:08:52.260Z</time>
      </trkpt>
      <trkpt lat="43.77131" lon="4.26839">
        <ele>52.21</ele>
        <time>2023-08-06T09:09:02.399Z</time>
      </trkpt>
      <trkpt lat="43.77122" lon="4.26842">
        <ele>50.43</ele>
        <time>2023-08-06T09:09:12.539Z</time>
      </trkpt>
      <trkpt lat="43.77122" lon="4.26847">
        <ele>48.26</ele>
        <time>2023-08-06T09:09:22.678Z</time>
      </trkpt>
      <trkpt lat="43.77119" lon="4.26859">
        <ele>47.32</ele>
        <time>2023-08-06T09:09:32.818Z</time>
      </trkpt>
      <trkpt lat="43.77115" lon="4.26866">
        <ele>46.73</ele>
        <time>2023-08-06T09:09:42.951Z</time>
      </trkpt>
      <trkpt lat="43.77101" lon="4.26866">
        <ele>47.16</ele>
        <time>2023-08-06T09:09:53.097Z</time>
      </trkpt>
      <trkpt lat="43.77092" lon="4.2687">
        <ele>46.96</ele>
        <time>2023-08-06T09:10:03.229Z</time>
      </trkpt>
      <trkpt lat="43.7709" lon="4.26886">
        <ele>46.54</ele>
        <time>2023-08-06T09:10:13.910Z</time>
      </trkpt>
      <trkpt lat="43.77087" lon="4.269">
        <ele>49.11</ele>
        <time>2023-08-06T09:10:24.008Z</time>
      </trkpt>
      <trkpt lat="43.77089" lon="4.26915">
        <ele>47.2</ele>
        <time>2023-08-06T09:10:34.188Z</time>
      </trkpt>
      <trkpt lat="43.77098" lon="4.26927">
        <ele>49.43</ele>
        <time>2023-08-06T09:10:44.328Z</time>
      </trkpt>
      <trkpt lat="43.77103" lon="4.2694">
        <ele>51.68</ele>
        <time>2023-08-06T09:10:55.001Z</time>
      </trkpt>
      <trkpt lat="43.77114" lon="4.26935">
        <ele>51.28</ele>
        <time>2023-08-06T09:11:05.140Z</time>
      </trkpt>
      <trkpt lat="43.77124" lon="4.26937">
        <ele>52.1</ele>
        <time>2023-08-06T09:11:15.281Z</time>
      </trkpt>
      <trkpt lat="43.77135" lon="4.26937">
        <ele>53.06</ele>
        <time>2023-08-06T09:11:25.408Z</time>
      </trkpt>
      <trkpt lat="43.77146" lon="4.26942">
        <ele>53.73</ele>
        <time>2023-08-06T09:11:35.560Z</time>
      </trkpt>
      <trkpt lat="43.77157" lon="4.26943">
        <ele>54.53</ele>
        <time>2023-08-06T09:11:45.699Z</time>
      </trkpt>
      <trkpt lat="43.7717" lon="4.26941">
        <ele>56.91</ele>
        <time>2023-08-06T09:11:55.839Z</time>
      </trkpt>
      <trkpt lat="43.77173" lon="4.26954">
        <ele>56.66</ele>
        <time>2023-08-06T09:12:05.952Z</time>
      </trkpt>
      <trkpt lat="43.77171" lon="4.2697">
        <ele>57.12</ele>
        <time>2023-08-06T09:12:16.125Z</time>
      </trkpt>
      <trkpt lat="43.77164" lon="4.26982">
        <ele>57.47</ele>
        <time>2023-08-06T09:12:26.791Z</time>
      </trkpt>
      <trkpt lat="43.77165" lon="4.26998">
        <ele>60.14</ele>
        <time>2023-08-06T09:12:36.932Z</time>
      </trkpt>
      <trkpt lat="43.77166" lon="4.27013">
        <ele>58.34</ele>
        <time>2023-08-06T09:12:47.069Z</time>
      </trkpt>
      <trkpt lat="43.77171" lon="4.27025">
        <ele>59.9</ele>
        <time>2023-08-06T09:12:57.210Z</time>
      </trkpt>
      <trkpt lat="43.7718" lon="4.27035">
        <ele>59.02</ele>
        <time>2023-08-06T09:13:07.350Z</time>
      </trkpt>
      <trkpt lat="43.77187" lon="4.27046">
        <ele>58.6</ele>
        <time>2023-08-06T09:13:17.470Z</time>
      </trkpt>
      <trkpt lat="43.77196" lon="4.27056">
        <ele>59.7</ele>
        <time>2023-08-06T09:13:27.629Z</time>
      </trkpt>
      <trkpt lat="43.77205" lon="4.27063">
        <ele>56.7</ele>
        <time>2023-08-06T09:13:37.769Z</time>
      </trkpt>
      <trkpt lat="43.77208" lon="4.27074">
        <ele>55.75</ele>
        <time>2023-08-06T09:13:47.909Z</time>
      </trkpt>
      <trkpt lat="43.77212" lon="4.27078">
        <ele>56.08</ele>
        <time>2023-08-06T09:13:58.049Z</time>
      </trkpt>
      <trkpt lat="43.7722" lon="4.27093">
        <ele>55.41</ele>
        <time>2023-08-06T09:14:08.190Z</time>
      </trkpt>
      <trkpt lat="43.77231" lon="4.27101">
        <ele>50.15</ele>
        <time>2023-08-06T09:14:18.329Z</time>
      </trkpt>
      <trkpt lat="43.77238" lon="4.2711">
        <ele>49.16</ele>
        <time>2023-08-06T09:14:28.469Z</time>
      </trkpt>
      <trkpt lat="43.7724" lon="4.27124">
        <ele>48.89</ele>
        <time>2023-08-06T09:14:39.143Z</time>
      </trkpt>
      <trkpt lat="43.77249" lon="4.27131">
        <ele>47.84</ele>
        <time>2023-08-06T09:14:49.816Z</time>
      </trkpt>
      <trkpt lat="43.77253" lon="4.27135">
        <ele>45.94</ele>
        <time>2023-08-06T09:14:59.951Z</time>
      </trkpt>
      <trkpt lat="43.7726" lon="4.27138">
        <ele>41.84</ele>
        <time>2023-08-06T09:15:10.096Z</time>
      </trkpt>
      <trkpt lat="43.77273" lon="4.27147">
        <ele>43.76</ele>
        <time>2023-08-06T09:15:20.770Z</time>
      </trkpt>
      <trkpt lat="43.77265" lon="4.27157">
        <ele>42.18</ele>
        <time>2023-08-06T09:15:30.909Z</time>
      </trkpt>
      <trkpt lat="43.77261" lon="4.27169">
        <ele>43.99</ele>
        <time>2023-08-06T09:15:41.049Z</time>
      </trkpt>
      <trkpt lat="43.77258" lon="4.2718">
        <ele>41.71</ele>
        <time>2023-08-06T09:15:51.189Z</time>
      </trkpt>
      <trkpt lat="43.77266" lon="4.27188">
        <ele>40.53</ele>
        <time>2023-08-06T09:16:01.329Z</time>
      </trkpt>
      <trkpt lat="43.77273" lon="4.27199">
        <ele>38.22</ele>
        <time>2023-08-06T09:16:12.004Z</time>
      </trkpt>
      <trkpt lat="43.77275" lon="4.27199">
        <ele>39.47</ele>
        <time>2023-08-06T09:16:22.143Z</time>
      </trkpt>
      <trkpt lat="43.77275" lon="4.27196">
        <ele>41.13</ele>
        <time>2023-08-06T09:16:33.075Z</time>
      </trkpt>
      <trkpt lat="43.77276" lon="4.27198">
        <ele>42.38</ele>
        <time>2023-08-06T09:16:58.075Z</time>
      </trkpt>
      <trkpt lat="43.77283" lon="4.27212">
        <ele>41.7</ele>
        <time>2023-08-06T09:17:08.129Z</time>
      </trkpt>
      <trkpt lat="43.77286" lon="4.27219">
        <ele>41.12</ele>
        <time>2023-08-06T09:17:18.288Z</time>
      </trkpt>
      <trkpt lat="43.77278" lon="4.27231">
        <ele>40.95</ele>
        <time>2023-08-06T09:17:28.951Z</time>
      </trkpt>
      <trkpt lat="43.77271" lon="4.27242">
        <ele>39.87</ele>
        <time>2023-08-06T09:17:39.102Z</time>
      </trkpt>
      <trkpt lat="43.77262" lon="4.27253">
        <ele>41.77</ele>
        <time>2023-08-06T09:17:49.241Z</time>
      </trkpt>
      <trkpt lat="43.77253" lon="4.27263">
        <ele>41.9</ele>
        <time>2023-08-06T09:17:59.381Z</time>
      </trkpt>
      <trkpt lat="43.77241" lon="4.27273">
        <ele>41.04</ele>
        <time>2023-08-06T09:18:10.041Z</time>
      </trkpt>
      <trkpt lat="43.77229" lon="4.27277">
        <ele>39.76</ele>
        <time>2023-08-06T09:18:20.837Z</time>
      </trkpt>
      <trkpt lat="43.77218" lon="4.27286">
        <ele>38.88</ele>
        <time>2023-08-06T09:18:30.951Z</time>
      </trkpt>
      <trkpt lat="43.77207" lon="4.27293">
        <ele>38.31</ele>
        <time>2023-08-06T09:18:41.117Z</time>
      </trkpt>
      <trkpt lat="43.77195" lon="4.27298">
        <ele>38.39</ele>
        <time>2023-08-06T09:18:51.258Z</time>
      </trkpt>
      <trkpt lat="43.77183" lon="4.27307">
        <ele>36.59</ele>
        <time>2023-08-06T09:19:01.397Z</time>
      </trkpt>
      <trkpt lat="43.77172" lon="4.27316">
        <ele>38.04</ele>
        <time>2023-08-06T09:19:11.527Z</time>
      </trkpt>
      <trkpt lat="43.77162" lon="4.2733">
        <ele>37.11</ele>
        <time>2023-08-06T09:19:21.678Z</time>
      </trkpt>
      <trkpt lat="43.77152" lon="4.27341">
        <ele>36</ele>
        <time>2023-08-06T09:19:31.817Z</time>
      </trkpt>
      <trkpt lat="43.77143" lon="4.27353">
        <ele>34.75</ele>
        <time>2023-08-06T09:19:41.952Z</time>
      </trkpt>
      <trkpt lat="43.77134" lon="4.27366">
        <ele>35.2</ele>
        <time>2023-08-06T09:19:52.089Z</time>
      </trkpt>
      <trkpt lat="43.77126" lon="4.27378">
        <ele>33.96</ele>
        <time>2023-08-06T09:20:02.238Z</time>
      </trkpt>
      <trkpt lat="43.77117" lon="4.2739">
        <ele>32.85</ele>
        <time>2023-08-06T09:20:12.365Z</time>
      </trkpt>
      <trkpt lat="43.77106" lon="4.27405">
        <ele>33.29</ele>
        <time>2023-08-06T09:20:22.518Z</time>
      </trkpt>
      <trkpt lat="43.77096" lon="4.27416">
        <ele>33.29</ele>
        <time>2023-08-06T09:20:32.659Z</time>
      </trkpt>
      <trkpt lat="43.77086" lon="4.27429">
        <ele>33.91</ele>
        <time>2023-08-06T09:20:42.799Z</time>
      </trkpt>
      <trkpt lat="43.77076" lon="4.27441">
        <ele>31.22</ele>
        <time>2023-08-06T09:20:52.938Z</time>
      </trkpt>
      <trkpt lat="43.77069" lon="4.27457">
        <ele>31.79</ele>
        <time>2023-08-06T09:21:03.079Z</time>
      </trkpt>
      <trkpt lat="43.77062" lon="4.27472">
        <ele>31.87</ele>
        <time>2023-08-06T09:21:13.459Z</time>
      </trkpt>
      <trkpt lat="43.77058" lon="4.2749">
        <ele>31.07</ele>
        <time>2023-08-06T09:21:23.653Z</time>
      </trkpt>
      <trkpt lat="43.77065" lon="4.27505">
        <ele>32.74</ele>
        <time>2023-08-06T09:21:33.794Z</time>
      </trkpt>
      <trkpt lat="43.77066" lon="4.27522">
        <ele>31.57</ele>
        <time>2023-08-06T09:21:43.934Z</time>
      </trkpt>
      <trkpt lat="43.77068" lon="4.27536">
        <ele>30.98</ele>
        <time>2023-08-06T09:21:54.005Z</time>
      </trkpt>
    </trkseg>
  </trk>
</gpx>